Time,TemperatureF,DewpointF,PressureIn,WindDirection,WindDirectionDegrees,WindSpeedMPH,WindSpeedGustMPH,Humidity,HourlyPrecipIn,Conditions,Clouds,dailyrainin,SolarRadiationWatts/m^2,SoftwareType,DateUTC
2013-08-07 00:00:00,87.5,53.6,29.35,SSE,168,7.8,9.1,31,-99.99,,,0.00,0,rob ver 1A,2013-08-07 07:00:00,
2013-08-07 00:01:00,87.0,38.2,29.32,East,96,1.4,2.8,18,-99.99,,,0.00,0,rob ver 1B,2013-08-07 07:01:00,
2013-08-07 00:02:00,87.1,38.5,29.32,South,173,2.0,3.0,17,-99.99,,,0.00,0,rob ver 1B,2013-08-07 07:02:00,
2013-08-07 00:03:00,87.1,38.4,29.32,SE,124,1.9,3.3,17,-99.99,,,0.00,0,rob ver 1B,2013-08-07 07:03:00,
2013-08-07 00:04:00,87.1,38.5,29.32,SE,140,2.1,3.1,17,-99.99,,,0.00,0,rob ver 1B,2013-08-07 07:04:00,
2013-08-07 00:05:00,87.6,53.6,29.35,SSE,150,4.3,5.5,31,-99.99,,,0.00,0,rob ver 1A,2013-08-07 07:05:00,
2013-08-07 00:06:00,87.1,39.0,29.32,SSE,160,3.6,4.7,18,-99.99,,,0.00,0,rob ver 1B,2013-08-07 07:06:00,
2013-08-07 00:07:00,87.2,39.4,29.32,South,185,1.5,2.7,18,-99.99,,,0.00,0,rob ver 1B,2013-08-07 07:07:00,
2013-08-07 00:08:00,87.3,39.4,29.32,SE,124,1.9,2.9,18,-99.99,,,0.00,0,rob ver 1B,2013-08-07 07:08:00,
2013-08-07 00:09:00,87.3,39.0,29.32,ESE,110,2.4,4.5,17,-99.99,,,0.00,0,rob ver 1B,2013-08-07 07:09:00,
2013-08-07 00:10:00,87.8,53.2,29.38,SSE,147,6.1,7.6,30,-99.99,,,0.00,0,rob ver 1A,2013-08-07 07:10:00,
2013-08-07 00:11:00,87.2,39.0,29.32,ENE,75,2.0,3.1,18,-99.99,,,0.00,0,rob ver 1B,2013-08-07 07:11:00,
2013-08-07 00:12:00,87.1,39.8,29.32,ESE,114,2.3,3.2,18,-99.99,,,0.00,0,rob ver 1B,2013-08-07 07:12:00,
2013-08-07 00:13:00,87.1,39.7,29.32,ESE,110,2.9,3.9,18,-99.99,,,0.00,0,rob ver 1B,2013-08-07 07:13:00,
2013-08-07 00:14:00,87.0,39.6,29.32,SSE,149,1.8,3.3,18,-99.99,,,0.00,0,rob ver 1B,2013-08-07 07:14:00,
2013-08-07 00:15:00,87.9,53.1,29.38,SSE,161,7.9,9.3,30,-99.99,,,0.00,0,rob ver 1A,2013-08-07 07:15:00,
2013-08-07 00:16:00,86.9,39.3,29.32,East,94,1.7,2.4,18,-99.99,,,0.00,0,rob ver 1B,2013-08-07 07:16:00,
2013-08-07 00:17:00,86.7,39.4,29.32,ESE,103,1.0,1.5,19,-99.99,,,0.00,0,rob ver 1B,2013-08-07 07:17:00,
2013-08-07 00:18:00,86.6,39.5,29.32,ESE,108,0.7,1.1,19,-99.99,,,0.00,0,rob ver 1B,2013-08-07 07:18:00,
2013-08-07 00:19:00,86.5,39.7,29.32,SSE,158,1.9,3.0,19,-99.99,,,0.00,0,rob ver 1B,2013-08-07 07:19:00,
2013-08-07 00:20:00,86.5,39.9,29.32,SE,131,1.4,2.2,19,-99.99,,,0.00,0,rob ver 1B,2013-08-07 07:20:00,
2013-08-07 00:21:00,87.8,53.1,29.38,SSE,160,8.6,10.3,30,-99.99,,,0.00,0,rob ver 1A,2013-08-07 07:21:00,
2013-08-07 00:22:00,86.4,40.0,29.32,ESE,102,2.7,3.8,19,-99.99,,,0.00,0,rob ver 1B,2013-08-07 07:22:00,
2013-08-07 00:23:00,86.4,39.9,29.32,SE,126,2.9,3.9,19,-99.99,,,0.00,0,rob ver 1B,2013-08-07 07:23:00,
2013-08-07 00:24:00,86.4,40.2,29.32,ESE,120,3.5,4.4,19,-99.99,,,0.00,0,rob ver 1B,2013-08-07 07:24:00,
2013-08-07 00:25:00,86.4,39.9,29.32,ESE,106,3.6,5.6,19,-99.99,,,0.00,0,rob ver 1B,2013-08-07 07:25:00,
2013-08-07 00:26:00,87.7,53.2,29.38,SSE,161,7.5,9.0,30,-99.99,,,0.00,0,rob ver 1A,2013-08-07 07:26:00,
2013-08-07 00:27:00,86.5,40.0,29.32,ESE,104,3.2,4.4,19,-99.99,,,0.00,0,rob ver 1B,2013-08-07 07:27:00,
2013-08-07 00:28:00,86.4,39.8,29.32,ESE,104,3.4,4.4,19,-99.99,,,0.00,0,rob ver 1B,2013-08-07 07:28:00,
2013-08-07 00:29:00,86.3,40.0,29.32,ESE,115,3.1,3.7,19,-99.99,,,0.00,0,rob ver 1B,2013-08-07 07:29:00,
2013-08-07 00:30:00,86.2,39.8,29.32,ESE,116,2.6,3.3,19,-99.99,,,0.00,0,rob ver 1B,2013-08-07 07:30:00,
2013-08-07 00:31:00,87.7,53.2,29.38,SSE,158,7.7,8.5,30,-99.99,,,0.00,0,rob ver 1A,2013-08-07 07:31:00,
2013-08-07 00:32:00,85.9,40.6,29.32,ESE,114,3.5,4.5,20,-99.99,,,0.00,0,rob ver 1B,2013-08-07 07:32:00,
2013-08-07 00:33:00,85.8,40.9,29.32,ESE,112,3.7,4.3,20,-99.99,,,0.00,0,rob ver 1B,2013-08-07 07:33:00,
2013-08-07 00:34:00,85.7,41.0,29.32,ESE,119,4.0,4.6,20,-99.99,,,0.00,0,rob ver 1B,2013-08-07 07:34:00,
2013-08-07 00:35:00,85.7,41.0,29.32,ESE,122,4.2,4.5,20,-99.99,,,0.00,0,rob ver 1B,2013-08-07 07:35:00,
2013-08-07 00:36:00,87.5,53.2,29.38,SSE,154,6.5,7.6,31,-99.99,,,0.00,0,rob ver 1A,2013-08-07 07:36:00,
2013-08-07 00:37:00,85.6,41.3,29.32,ESE,118,4.0,4.3,21,-99.99,,,0.00,0,rob ver 1B,2013-08-07 07:37:00,
2013-08-07 00:38:00,85.6,41.7,29.32,ESE,120,3.9,4.5,21,-99.99,,,0.00,0,rob ver 1B,2013-08-07 07:38:00,
2013-08-07 00:39:00,85.6,41.4,29.32,ESE,120,3.7,4.3,21,-99.99,,,0.00,0,rob ver 1B,2013-08-07 07:39:00,
2013-08-07 00:40:00,85.5,41.7,29.32,ESE,116,4.1,4.9,21,-99.99,,,0.00,0,rob ver 1B,2013-08-07 07:40:00,
2013-08-07 00:41:00,87.5,53.2,29.38,SSE,160,6.7,8.4,31,-99.99,,,0.00,0,rob ver 1A,2013-08-07 07:41:00,
2013-08-07 00:42:00,85.4,41.9,29.32,ESE,113,4.1,4.8,21,-99.99,,,0.00,0,rob ver 1B,2013-08-07 07:42:00,
2013-08-07 00:43:00,85.3,42.1,29.32,ESE,118,4.3,5.0,22,-99.99,,,0.00,0,rob ver 1B,2013-08-07 07:43:00,
2013-08-07 00:44:00,85.2,41.5,29.32,ESE,122,4.4,5.3,21,-99.99,,,0.00,0,rob ver 1B,2013-08-07 07:44:00,
2013-08-07 00:45:00,85.3,42.5,29.32,ESE,120,4.7,5.1,22,-99.99,,,0.00,0,rob ver 1B,2013-08-07 07:45:00,
2013-08-07 00:46:00,87.6,53.1,29.38,SSE,162,8.5,10.1,30,-99.99,,,0.00,0,rob ver 1A,2013-08-07 07:46:00,
2013-08-07 00:47:00,85.2,41.7,29.32,SE,127,4.6,5.4,21,-99.99,,,0.00,0,rob ver 1B,2013-08-07 07:47:00,
2013-08-07 00:48:00,85.2,41.5,29.32,SE,124,4.8,6.0,21,-99.99,,,0.00,0,rob ver 1B,2013-08-07 07:48:00,
2013-08-07 00:49:00,85.2,41.2,29.32,SE,125,4.3,5.1,21,-99.99,,,0.00,0,rob ver 1B,2013-08-07 07:49:00,
2013-08-07 00:50:00,85.1,40.5,29.32,SE,133,4.2,4.7,20,-99.99,,,0.00,0,rob ver 1B,2013-08-07 07:50:00,
2013-08-07 00:51:00,88.0,53.0,29.38,South,170,8.8,11.2,30,-99.99,,,0.00,0,rob ver 1A,2013-08-07 07:51:00,
2013-08-07 00:52:00,85.0,39.8,29.32,SE,133,4.1,4.6,20,-99.99,,,0.00,0,rob ver 1B,2013-08-07 07:52:00,
2013-08-07 00:53:00,85.0,39.6,29.32,SE,135,3.8,4.3,19,-99.99,,,0.00,0,rob ver 1B,2013-08-07 07:53:00,
2013-08-07 00:54:00,85.0,39.3,29.32,SE,141,3.9,4.4,19,-99.99,,,0.00,0,rob ver 1B,2013-08-07 07:54:00,
2013-08-07 00:55:00,85.0,39.1,29.32,SE,137,3.8,4.2,19,-99.99,,,0.00,0,rob ver 1B,2013-08-07 07:55:00,
2013-08-07 00:56:00,87.9,53.1,29.35,SSE,160,10.1,12.5,30,-99.99,,,0.00,0,rob ver 1A,2013-08-07 07:56:00,
2013-08-07 00:57:00,85.0,38.9,29.32,SE,142,3.9,4.5,19,-99.99,,,0.00,0,rob ver 1B,2013-08-07 07:57:00,
2013-08-07 00:58:00,85.0,38.7,29.32,SE,143,4.0,4.5,19,-99.99,,,0.00,0,rob ver 1B,2013-08-07 07:58:00,
2013-08-07 00:59:00,85.0,38.5,29.32,SE,141,4.0,4.5,19,-99.99,,,0.00,0,rob ver 1B,2013-08-07 07:59:00,
2013-08-07 01:00:00,85.0,38.4,29.32,SE,141,4.3,4.9,19,-99.99,,,0.00,0,rob ver 1B,2013-08-07 08:00:00,
2013-08-07 01:01:00,87.9,53.1,29.35,SSE,158,7.7,9.8,30,-99.99,,,0.00,0,rob ver 1A,2013-08-07 08:01:00,
2013-08-07 01:02:00,84.8,38.3,29.32,SSE,147,5.0,5.7,19,-99.99,,,0.00,0,rob ver 1B,2013-08-07 08:02:00,
2013-08-07 01:03:00,84.7,38.3,29.32,SE,142,5.5,5.9,19,-99.99,,,0.00,0,rob ver 1B,2013-08-07 08:03:00,
2013-08-07 01:04:00,84.6,38.2,29.32,SE,132,5.9,6.5,19,-99.99,,,0.00,0,rob ver 1B,2013-08-07 08:04:00,
2013-08-07 01:05:00,84.5,37.9,29.32,SE,135,5.4,6.2,19,-99.99,,,0.00,0,rob ver 1B,2013-08-07 08:05:00,
2013-08-07 01:06:00,84.3,37.9,29.32,SE,137,5.5,6.3,19,-99.99,,,0.00,0,rob ver 1B,2013-08-07 08:06:00,
2013-08-07 01:07:00,87.6,53.1,29.38,SSE,155,7.2,8.2,30,-99.99,,,0.00,0,rob ver 1A,2013-08-07 08:07:00,
2013-08-07 01:08:00,84.1,37.8,29.32,SE,135,5.4,6.1,19,-99.99,,,0.00,0,rob ver 1B,2013-08-07 08:08:00,
2013-08-07 01:09:00,84.0,37.7,29.32,SE,134,6.0,8.1,19,-99.99,,,0.00,0,rob ver 1B,2013-08-07 08:09:00,
2013-08-07 01:10:00,83.9,37.6,29.32,SE,135,6.2,7.1,19,-99.99,,,0.00,0,rob ver 1B,2013-08-07 08:10:00,
2013-08-07 01:11:00,83.9,37.4,29.29,SE,134,5.7,7.4,18,-99.99,,,0.00,0,rob ver 1B,2013-08-07 08:11:00,
2013-08-07 01:12:00,87.6,53.0,29.38,SSE,154,7.5,9.0,30,-99.99,,,0.00,0,rob ver 1A,2013-08-07 08:12:00,
2013-08-07 01:13:00,84.0,37.0,29.32,SE,134,4.6,6.2,18,-99.99,,,0.00,0,rob ver 1B,2013-08-07 08:13:00,
2013-08-07 01:14:00,83.9,36.9,29.29,SE,131,4.8,6.1,18,-99.99,,,0.00,0,rob ver 1B,2013-08-07 08:14:00,
2013-08-07 01:15:00,83.9,36.9,29.29,SE,131,6.4,7.7,18,-99.99,,,0.00,0,rob ver 1B,2013-08-07 08:15:00,
2013-08-07 01:16:00,83.9,36.8,29.29,SE,133,5.6,7.2,18,-99.99,,,0.00,0,rob ver 1B,2013-08-07 08:16:00,
2013-08-07 01:17:00,87.8,53.5,29.38,SSE,159,9.4,10.7,31,-99.99,,,0.00,0,rob ver 1A,2013-08-07 08:17:00,
2013-08-07 01:18:00,84.0,36.8,29.32,SE,139,4.1,5.5,18,-99.99,,,0.00,0,rob ver 1B,2013-08-07 08:18:00,
2013-08-07 01:19:00,83.9,36.9,29.29,SE,133,5.4,6.5,18,-99.99,,,0.00,0,rob ver 1B,2013-08-07 08:19:00,
2013-08-07 01:20:00,83.9,36.9,29.29,SE,131,5.7,6.7,18,-99.99,,,0.00,0,rob ver 1B,2013-08-07 08:20:00,
2013-08-07 01:21:00,83.9,36.9,29.32,SE,134,4.3,5.3,18,-99.99,,,0.00,0,rob ver 1B,2013-08-07 08:21:00,
2013-08-07 01:22:00,87.5,53.7,29.38,SSE,159,7.6,8.9,31,-99.99,,,0.00,0,rob ver 1A,2013-08-07 08:22:00,
2013-08-07 01:23:00,83.7,37.3,29.29,SE,125,4.5,5.2,19,-99.99,,,0.00,0,rob ver 1B,2013-08-07 08:23:00,
2013-08-07 01:24:00,83.7,37.5,29.29,ESE,117,4.1,5.2,19,-99.99,,,0.00,0,rob ver 1B,2013-08-07 08:24:00,
2013-08-07 01:25:00,83.6,37.4,29.29,ESE,123,3.6,5.3,19,-99.99,,,0.00,0,rob ver 1B,2013-08-07 08:25:00,
2013-08-07 01:26:00,83.6,37.4,29.29,ESE,117,4.0,4.6,19,-99.99,,,0.00,0,rob ver 1B,2013-08-07 08:26:00,
2013-08-07 01:27:00,87.5,53.7,29.35,SSE,162,8.1,10.2,31,-99.99,,,0.00,0,rob ver 1A,2013-08-07 08:27:00,
2013-08-07 01:28:00,83.6,37.2,29.29,ESE,107,4.3,5.0,19,-99.99,,,0.00,0,rob ver 1B,2013-08-07 08:28:00,
2013-08-07 01:29:00,83.7,37.2,29.29,ESE,105,3.6,5.0,18,-99.99,,,0.00,0,rob ver 1B,2013-08-07 08:29:00,
2013-08-07 01:30:00,83.8,37.3,29.29,East,91,2.9,3.2,19,-99.99,,,0.00,0,rob ver 1B,2013-08-07 08:30:00,
2013-08-07 01:31:00,83.8,37.4,29.29,East,82,2.7,3.1,19,-99.99,,,0.00,0,rob ver 1B,2013-08-07 08:31:00,
2013-08-07 01:32:00,87.5,53.8,29.35,SSE,167,9.0,11.1,31,-99.99,,,0.00,0,rob ver 1A,2013-08-07 08:32:00,
2013-08-07 01:33:00,83.9,37.6,29.29,East,98,2.9,3.5,19,-99.99,,,0.00,0,rob ver 1B,2013-08-07 08:33:00,
2013-08-07 01:34:00,83.9,37.9,29.29,ESE,105,3.3,3.8,19,-99.99,,,0.00,0,rob ver 1B,2013-08-07 08:34:00,
2013-08-07 01:35:00,83.9,38.7,29.29,ESE,110,3.8,4.1,20,-99.99,,,0.00,0,rob ver 1B,2013-08-07 08:35:00,
2013-08-07 01:36:00,83.9,38.8,29.29,ESE,111,4.6,5.2,20,-99.99,,,0.00,0,rob ver 1B,2013-08-07 08:36:00,
2013-08-07 01:37:00,87.5,54.0,29.35,South,171,8.6,10.4,32,-99.99,,,0.00,0,rob ver 1A,2013-08-07 08:37:00,
2013-08-07 01:38:00,83.6,38.9,29.29,ESE,123,5.2,5.8,20,-99.99,,,0.00,0,rob ver 1B,2013-08-07 08:38:00,
2013-08-07 01:39:00,83.4,39.0,29.29,ESE,121,5.1,5.5,20,-99.99,,,0.00,0,rob ver 1B,2013-08-07 08:39:00,
2013-08-07 01:40:00,83.3,39.0,29.29,SE,125,4.7,5.4,20,-99.99,,,0.00,0,rob ver 1B,2013-08-07 08:40:00,
2013-08-07 01:41:00,83.2,39.0,29.29,SE,125,5.2,5.8,20,-99.99,,,0.00,0,rob ver 1B,2013-08-07 08:41:00,
2013-08-07 01:42:00,87.3,54.2,29.35,South,173,9.0,10.5,32,-99.99,,,0.00,0,rob ver 1A,2013-08-07 08:42:00,
2013-08-07 01:43:00,83.1,38.7,29.29,SE,125,5.5,6.2,20,-99.99,,,0.00,0,rob ver 1B,2013-08-07 08:43:00,
2013-08-07 01:44:00,83.2,38.6,29.29,SE,124,6.0,6.6,20,-99.99,,,0.00,0,rob ver 1B,2013-08-07 08:44:00,
2013-08-07 01:45:00,83.3,38.5,29.29,SE,126,6.2,6.7,20,-99.99,,,0.00,0,rob ver 1B,2013-08-07 08:45:00,
2013-08-07 01:46:00,83.4,38.4,29.29,SE,127,5.1,6.2,20,-99.99,,,0.00,0,rob ver 1B,2013-08-07 08:46:00,
2013-08-07 01:47:00,87.2,54.1,29.35,South,174,8.6,11.0,32,-99.99,,,0.00,0,rob ver 1A,2013-08-07 08:47:00,
2013-08-07 01:48:00,83.4,38.5,29.29,SE,124,5.3,5.7,20,-99.99,,,0.00,0,rob ver 1B,2013-08-07 08:48:00,
2013-08-07 01:49:00,83.3,38.4,29.29,SE,125,5.3,5.8,20,-99.99,,,0.00,0,rob ver 1B,2013-08-07 08:49:00,
2013-08-07 01:50:00,83.2,38.4,29.29,SE,126,5.4,5.9,20,-99.99,,,0.00,0,rob ver 1B,2013-08-07 08:50:00,
2013-08-07 01:51:00,83.2,38.4,29.29,ESE,122,5.3,5.7,20,-99.99,,,0.00,0,rob ver 1B,2013-08-07 08:51:00,
2013-08-07 01:52:00,83.2,38.4,29.29,SE,128,5.0,5.5,20,-99.99,,,0.00,0,rob ver 1B,2013-08-07 08:52:00,
2013-08-07 01:53:00,87.1,54.2,29.35,South,175,8.5,10.2,32,-99.99,,,0.00,0,rob ver 1A,2013-08-07 08:53:00,
2013-08-07 01:54:00,83.2,38.5,29.29,ESE,120,5.0,5.6,20,-99.99,,,0.00,0,rob ver 1B,2013-08-07 08:54:00,
2013-08-07 01:55:00,83.2,38.6,29.29,ESE,118,5.0,5.6,20,-99.99,,,0.00,0,rob ver 1B,2013-08-07 08:55:00,
2013-08-07 01:56:00,83.2,38.7,29.29,ESE,117,4.5,5.0,20,-99.99,,,0.00,0,rob ver 1B,2013-08-07 08:56:00,
2013-08-07 01:57:00,83.1,39.0,29.29,ESE,112,4.4,4.8,21,-99.99,,,0.00,0,rob ver 1B,2013-08-07 08:57:00,
2013-08-07 01:58:00,87.0,54.2,29.35,South,173,7.6,9.1,32,-99.99,,,0.00,0,rob ver 1A,2013-08-07 08:58:00,
2013-08-07 01:59:00,83.0,40.2,29.29,ESE,107,4.4,4.8,22,-99.99,,,0.00,0,rob ver 1B,2013-08-07 08:59:00,
2013-08-07 02:00:00,82.9,40.6,29.29,ESE,112,4.6,5.0,22,-99.99,,,0.00,0,rob ver 1B,2013-08-07 09:00:00,
2013-08-07 02:01:00,82.9,40.7,29.29,ESE,112,4.6,5.5,22,-99.99,,,0.00,0,rob ver 1B,2013-08-07 09:01:00,
2013-08-07 02:02:00,82.8,40.6,29.29,ESE,116,4.5,4.8,22,-99.99,,,0.00,0,rob ver 1B,2013-08-07 09:02:00,
2013-08-07 02:03:00,86.9,54.3,29.35,South,172,6.8,8.1,33,-99.99,,,0.00,0,rob ver 1A,2013-08-07 09:03:00,
2013-08-07 02:04:00,82.7,40.4,29.29,ESE,116,5.3,5.8,22,-99.99,,,0.00,0,rob ver 1B,2013-08-07 09:04:00,
2013-08-07 02:05:00,82.7,40.2,29.29,ESE,114,5.4,5.9,22,-99.99,,,0.00,0,rob ver 1B,2013-08-07 09:05:00,
2013-08-07 02:06:00,82.7,40.0,29.29,ESE,113,5.2,5.8,21,-99.99,,,0.00,0,rob ver 1B,2013-08-07 09:06:00,
2013-08-07 02:07:00,82.7,40.0,29.29,ESE,115,5.2,5.7,21,-99.99,,,0.00,0,rob ver 1B,2013-08-07 09:07:00,
2013-08-07 02:08:00,86.5,54.4,29.35,South,176,5.6,7.4,33,-99.99,,,0.00,0,rob ver 1A,2013-08-07 09:08:00,
2013-08-07 02:09:00,82.6,39.6,29.29,ESE,121,5.2,5.8,21,-99.99,,,0.00,0,rob ver 1B,2013-08-07 09:09:00,
2013-08-07 02:10:00,82.6,39.5,29.29,ESE,121,5.4,6.5,21,-99.99,,,0.00,0,rob ver 1B,2013-08-07 09:10:00,
2013-08-07 02:11:00,82.6,39.3,29.29,ESE,120,6.0,6.5,21,-99.99,,,0.00,0,rob ver 1B,2013-08-07 09:11:00,
2013-08-07 02:12:00,82.6,39.2,29.29,ESE,119,6.1,6.8,21,-99.99,,,0.00,0,rob ver 1B,2013-08-07 09:12:00,
2013-08-07 02:13:00,86.2,54.5,29.35,South,175,6.3,7.8,33,-99.99,,,0.00,0,rob ver 1A,2013-08-07 09:13:00,
2013-08-07 02:14:00,82.7,38.9,29.29,ESE,121,6.1,6.9,20,-99.99,,,0.00,0,rob ver 1B,2013-08-07 09:14:00,
2013-08-07 02:15:00,82.7,38.6,29.29,ESE,122,6.6,7.4,20,-99.99,,,0.00,0,rob ver 1B,2013-08-07 09:15:00,
2013-08-07 02:16:00,82.7,38.4,29.29,ESE,123,6.9,8.2,20,-99.99,,,0.00,0,rob ver 1B,2013-08-07 09:16:00,
2013-08-07 02:17:00,82.7,38.2,29.29,SE,125,6.8,8.5,20,-99.99,,,0.00,0,rob ver 1B,2013-08-07 09:17:00,
2013-08-07 02:18:00,86.1,54.6,29.35,South,178,6.3,7.6,34,-99.99,,,0.00,0,rob ver 1A,2013-08-07 09:18:00,
2013-08-07 02:19:00,82.9,37.8,29.29,SE,128,7.4,8.4,19,-99.99,,,0.00,0,rob ver 1B,2013-08-07 09:19:00,
2013-08-07 02:20:00,82.9,37.7,29.29,SE,129,7.2,8.1,19,-99.99,,,0.00,0,rob ver 1B,2013-08-07 09:20:00,
2013-08-07 02:21:00,82.9,37.6,29.29,SE,127,7.4,8.5,19,-99.99,,,0.00,0,rob ver 1B,2013-08-07 09:21:00,
2013-08-07 02:22:00,83.0,37.5,29.29,SE,128,7.1,8.3,19,-99.99,,,0.00,0,rob ver 1B,2013-08-07 09:22:00,
2013-08-07 02:23:00,85.9,54.6,29.35,South,177,5.3,6.1,34,-99.99,,,0.00,0,rob ver 1A,2013-08-07 09:23:00,
2013-08-07 02:24:00,83.0,37.3,29.29,SE,130,7.2,8.3,19,-99.99,,,0.00,0,rob ver 1B,2013-08-07 09:24:00,
2013-08-07 02:25:00,83.0,37.2,29.29,SE,130,7.0,8.3,19,-99.99,,,0.00,0,rob ver 1B,2013-08-07 09:25:00,
2013-08-07 02:26:00,83.0,37.2,29.29,SE,131,7.1,7.7,19,-99.99,,,0.00,0,rob ver 1B,2013-08-07 09:26:00,
2013-08-07 02:27:00,83.0,37.2,29.29,SE,131,6.7,7.7,19,-99.99,,,0.00,0,rob ver 1B,2013-08-07 09:27:00,
2013-08-07 02:28:00,85.7,54.7,29.35,South,178,5.1,6.0,34,-99.99,,,0.00,0,rob ver 1A,2013-08-07 09:28:00,
2013-08-07 02:29:00,83.0,37.1,29.29,SE,130,6.3,7.1,19,-99.99,,,0.00,0,rob ver 1B,2013-08-07 09:29:00,
2013-08-07 02:30:00,82.9,37.2,29.29,SE,131,6.2,6.9,19,-99.99,,,0.00,0,rob ver 1B,2013-08-07 09:30:00,
2013-08-07 02:31:00,82.8,37.2,29.29,SE,130,6.0,6.9,19,-99.99,,,0.00,0,rob ver 1B,2013-08-07 09:31:00,
2013-08-07 02:32:00,82.8,37.4,29.29,SE,129,5.6,6.2,19,-99.99,,,0.00,0,rob ver 1B,2013-08-07 09:32:00,
2013-08-07 02:33:00,82.7,37.4,29.29,SE,129,5.3,5.9,19,-99.99,,,0.00,0,rob ver 1B,2013-08-07 09:33:00,
2013-08-07 02:34:00,85.5,54.8,29.35,South,176,5.1,6.4,35,-99.99,,,0.00,0,rob ver 1A,2013-08-07 09:34:00,
2013-08-07 02:35:00,82.5,37.5,29.29,SE,133,5.4,6.2,20,-99.99,,,0.00,0,rob ver 1B,2013-08-07 09:35:00,
2013-08-07 02:36:00,82.4,37.5,29.29,SE,136,5.3,6.0,20,-99.99,,,0.00,0,rob ver 1B,2013-08-07 09:36:00,
2013-08-07 02:37:00,82.3,37.6,29.29,SE,140,5.6,6.2,20,-99.99,,,0.00,0,rob ver 1B,2013-08-07 09:37:00,
2013-08-07 02:38:00,82.2,37.6,29.29,SE,139,5.2,5.9,20,-99.99,,,0.00,0,rob ver 1B,2013-08-07 09:38:00,
2013-08-07 02:39:00,85.4,55.0,29.35,South,178,4.8,6.2,35,-99.99,,,0.00,0,rob ver 1A,2013-08-07 09:39:00,
2013-08-07 02:40:00,82.1,37.7,29.29,SE,140,6.3,7.0,20,-99.99,,,0.00,0,rob ver 1B,2013-08-07 09:40:00,
2013-08-07 02:41:00,82.1,37.7,29.29,SE,140,6.2,6.9,20,-99.99,,,0.00,0,rob ver 1B,2013-08-07 09:41:00,
2013-08-07 02:42:00,82.1,37.7,29.29,SE,141,6.1,7.0,20,-99.99,,,0.00,0,rob ver 1B,2013-08-07 09:42:00,
2013-08-07 02:43:00,82.0,37.7,29.29,SE,139,6.3,7.0,20,-99.99,,,0.00,0,rob ver 1B,2013-08-07 09:43:00,
2013-08-07 02:44:00,85.3,55.2,29.35,South,177,4.4,5.4,35,-99.99,,,0.00,0,rob ver 1A,2013-08-07 09:44:00,
2013-08-07 02:45:00,81.9,37.8,29.29,SE,142,5.7,6.4,20,-99.99,,,0.00,0,rob ver 1B,2013-08-07 09:45:00,
2013-08-07 02:46:00,81.9,37.8,29.29,SE,141,5.8,6.5,20,-99.99,,,0.00,0,rob ver 1B,2013-08-07 09:46:00,
2013-08-07 02:47:00,81.9,37.7,29.29,SE,143,5.9,6.7,20,-99.99,,,0.00,0,rob ver 1B,2013-08-07 09:47:00,
2013-08-07 02:48:00,81.9,37.7,29.29,SE,143,6.1,7.0,20,-99.99,,,0.00,0,rob ver 1B,2013-08-07 09:48:00,
2013-08-07 02:49:00,85.2,55.4,29.35,SSE,158,2.6,4.0,36,-99.99,,,0.00,0,rob ver 1A,2013-08-07 09:49:00,
2013-08-07 02:50:00,81.8,37.8,29.29,SSE,152,6.3,7.2,20,-99.99,,,0.00,0,rob ver 1B,2013-08-07 09:50:00,
2013-08-07 02:51:00,81.7,37.7,29.29,SSE,153,6.2,7.9,20,-99.99,,,0.00,0,rob ver 1B,2013-08-07 09:51:00,
2013-08-07 02:52:00,81.8,37.6,29.29,SSE,160,6.3,7.5,20,-99.99,,,0.00,0,rob ver 1B,2013-08-07 09:52:00,
2013-08-07 02:53:00,81.8,37.6,29.29,SSE,161,6.4,7.4,20,-99.99,,,0.00,0,rob ver 1B,2013-08-07 09:53:00,
2013-08-07 02:54:00,84.7,54.4,29.35,NNE,26,2.3,2.7,35,-99.99,,,0.00,0,rob ver 1A,2013-08-07 09:54:00,
2013-08-07 02:55:00,81.7,37.5,29.29,SSE,155,7.4,8.3,20,-99.99,,,0.00,0,rob ver 1B,2013-08-07 09:55:00,
2013-08-07 02:56:00,81.7,37.6,29.29,SSE,153,7.3,8.0,20,-99.99,,,0.00,0,rob ver 1B,2013-08-07 09:56:00,
2013-08-07 02:57:00,81.7,37.5,29.29,SSE,151,7.0,8.0,20,-99.99,,,0.00,0,rob ver 1B,2013-08-07 09:57:00,
2013-08-07 02:58:00,81.8,37.5,29.29,SSE,150,7.1,7.8,20,-99.99,,,0.00,0,rob ver 1B,2013-08-07 09:58:00,
2013-08-07 02:59:00,84.4,55.0,29.35,ENE,61,1.6,2.0,36,-99.99,,,0.00,0,rob ver 1A,2013-08-07 09:59:00,
2013-08-07 03:00:00,82.0,37.6,29.29,SSE,151,6.6,7.6,20,-99.99,,,0.00,0,rob ver 1B,2013-08-07 10:00:00,
2013-08-07 03:01:00,82.0,37.7,29.29,SSE,149,6.2,7.4,20,-99.99,,,0.00,0,rob ver 1B,2013-08-07 10:01:00,
2013-08-07 03:02:00,82.0,37.9,29.29,SSE,149,6.3,7.3,20,-99.99,,,0.00,0,rob ver 1B,2013-08-07 10:02:00,
2013-08-07 03:03:00,82.0,37.9,29.29,SE,143,6.0,7.0,20,-99.99,,,0.00,0,rob ver 1B,2013-08-07 10:03:00,
2013-08-07 03:04:00,84.5,55.2,29.35,SSE,158,1.2,1.7,36,-99.99,,,0.00,0,rob ver 1A,2013-08-07 10:04:00,
2013-08-07 03:05:00,81.9,38.1,29.29,SE,143,6.2,7.0,20,-99.99,,,0.00,0,rob ver 1B,2013-08-07 10:05:00,
2013-08-07 03:06:00,81.9,38.1,29.29,SE,143,5.8,6.7,20,-99.99,,,0.00,0,rob ver 1B,2013-08-07 10:06:00,
2013-08-07 03:07:00,81.9,38.1,29.29,SE,141,5.6,6.5,21,-99.99,,,0.00,0,rob ver 1B,2013-08-07 10:07:00,
2013-08-07 03:08:00,81.8,38.2,29.29,SE,141,5.3,5.8,21,-99.99,,,0.00,0,rob ver 1B,2013-08-07 10:08:00,
2013-08-07 03:09:00,84.6,55.3,29.35,SW,216,2.7,3.5,36,-99.99,,,0.00,0,rob ver 1A,2013-08-07 10:09:00,
2013-08-07 03:10:00,81.7,38.3,29.29,SE,141,5.3,6.0,21,-99.99,,,0.00,0,rob ver 1B,2013-08-07 10:10:00,
2013-08-07 03:11:00,81.6,38.3,29.29,SE,142,5.0,5.8,21,-99.99,,,0.00,0,rob ver 1B,2013-08-07 10:11:00,
2013-08-07 03:12:00,81.5,38.3,29.29,SE,142,4.9,5.5,21,-99.99,,,0.00,0,rob ver 1B,2013-08-07 10:12:00,
2013-08-07 03:13:00,81.4,38.3,29.29,SE,143,4.8,5.6,21,-99.99,,,0.00,0,rob ver 1B,2013-08-07 10:13:00,
2013-08-07 03:14:00,81.4,38.4,29.29,SE,141,5.1,5.8,21,-99.99,,,0.00,0,rob ver 1B,2013-08-07 10:14:00,
2013-08-07 03:15:00,84.5,55.1,29.35,SSW,207,1.2,1.8,36,-99.99,,,0.00,0,rob ver 1A,2013-08-07 10:15:00,
2013-08-07 03:16:00,81.2,38.4,29.29,SE,146,5.4,5.8,21,-99.99,,,0.00,0,rob ver 1B,2013-08-07 10:16:00,
2013-08-07 03:17:00,81.3,38.4,29.29,SE,144,5.3,6.3,21,-99.99,,,0.00,0,rob ver 1B,2013-08-07 10:17:00,
2013-08-07 03:18:00,81.3,38.4,29.29,SE,142,5.4,6.4,21,-99.99,,,0.00,0,rob ver 1B,2013-08-07 10:18:00,
2013-08-07 03:19:00,81.3,38.4,29.29,SE,143,5.6,6.7,21,-99.99,,,0.00,0,rob ver 1B,2013-08-07 10:19:00,
2013-08-07 03:20:00,83.9,54.9,29.35,ENE,66,2.8,3.3,37,-99.99,,,0.00,0,rob ver 1A,2013-08-07 10:20:00,
2013-08-07 03:21:00,81.2,38.4,29.29,SE,145,5.1,6.1,21,-99.99,,,0.00,0,rob ver 1B,2013-08-07 10:21:00,
2013-08-07 03:22:00,81.2,38.4,29.29,SE,143,5.3,6.1,21,-99.99,,,0.00,0,rob ver 1B,2013-08-07 10:22:00,
2013-08-07 03:23:00,81.1,38.4,29.29,SE,145,5.1,5.8,21,-99.99,,,0.00,0,rob ver 1B,2013-08-07 10:23:00,
2013-08-07 03:24:00,81.1,38.5,29.29,SE,142,5.3,6.3,21,-99.99,,,0.00,0,rob ver 1B,2013-08-07 10:24:00,
2013-08-07 03:25:00,83.6,55.0,29.35,ENE,68,2.3,2.8,37,-99.99,,,0.00,0,rob ver 1A,2013-08-07 10:25:00,
2013-08-07 03:26:00,81.1,38.5,29.29,SE,139,5.2,6.4,21,-99.99,,,0.00,0,rob ver 1B,2013-08-07 10:26:00,
2013-08-07 03:27:00,81.0,38.5,29.29,SE,138,5.1,5.9,21,-99.99,,,0.00,0,rob ver 1B,2013-08-07 10:27:00,
2013-08-07 03:28:00,81.0,38.6,29.29,SE,136,5.1,6.0,21,-99.99,,,0.00,0,rob ver 1B,2013-08-07 10:28:00,
2013-08-07 03:29:00,80.9,38.6,29.29,SE,136,4.9,6.1,22,-99.99,,,0.00,0,rob ver 1B,2013-08-07 10:29:00,
2013-08-07 03:30:00,83.6,55.0,29.35,ENE,71,2.3,2.8,37,-99.99,,,0.00,0,rob ver 1A,2013-08-07 10:30:00,
2013-08-07 03:31:00,80.9,38.7,29.29,SE,127,4.3,5.1,22,-99.99,,,0.00,0,rob ver 1B,2013-08-07 10:31:00,
2013-08-07 03:32:00,80.9,38.8,29.29,SE,126,4.1,5.3,22,-99.99,,,0.00,0,rob ver 1B,2013-08-07 10:32:00,
2013-08-07 03:33:00,80.9,38.8,29.29,ESE,122,4.2,4.8,22,-99.99,,,0.00,0,rob ver 1B,2013-08-07 10:33:00,
2013-08-07 03:34:00,80.9,38.8,29.29,SE,125,4.2,5.0,22,-99.99,,,0.00,0,rob ver 1B,2013-08-07 10:34:00,
2013-08-07 03:35:00,83.3,54.8,29.35,ENE,62,2.7,3.1,37,-99.99,,,0.00,0,rob ver 1A,2013-08-07 10:35:00,
2013-08-07 03:36:00,80.9,38.8,29.29,SE,129,5.1,6.1,22,-99.99,,,0.00,0,rob ver 1B,2013-08-07 10:36:00,
2013-08-07 03:37:00,81.0,38.8,29.29,SE,129,5.7,7.0,22,-99.99,,,0.00,0,rob ver 1B,2013-08-07 10:37:00,
2013-08-07 03:38:00,81.1,38.8,29.29,SE,128,6.2,7.2,21,-99.99,,,0.00,0,rob ver 1B,2013-08-07 10:38:00,
2013-08-07 03:39:00,81.2,38.7,29.29,SE,134,6.4,8.7,21,-99.99,,,0.00,0,rob ver 1B,2013-08-07 10:39:00,
2013-08-07 03:40:00,83.0,54.6,29.35,NE,35,2.8,3.1,37,-99.99,,,0.00,0,rob ver 1A,2013-08-07 10:40:00,
2013-08-07 03:41:00,81.4,38.8,29.29,SE,143,5.5,7.4,21,-99.99,,,0.00,0,rob ver 1B,2013-08-07 10:41:00,
2013-08-07 03:42:00,81.3,38.7,29.29,SSE,147,5.8,6.8,21,-99.99,,,0.00,0,rob ver 1B,2013-08-07 10:42:00,
2013-08-07 03:43:00,81.3,38.7,29.29,SE,144,6.5,8.0,21,-99.99,,,0.00,0,rob ver 1B,2013-08-07 10:43:00,
2013-08-07 03:44:00,81.5,38.7,29.29,SE,145,7.6,8.9,21,-99.99,,,0.00,0,rob ver 1B,2013-08-07 10:44:00,
2013-08-07 03:45:00,82.6,53.9,29.35,NE,37,3.4,3.7,37,-99.99,,,0.00,0,rob ver 1A,2013-08-07 10:45:00,
2013-08-07 03:46:00,81.7,38.8,29.29,SSE,155,7.7,10.0,21,-99.99,,,0.00,0,rob ver 1B,2013-08-07 10:46:00,
2013-08-07 03:47:00,81.8,38.8,29.29,SE,146,7.6,9.1,21,-99.99,,,0.00,0,rob ver 1B,2013-08-07 10:47:00,
2013-08-07 03:48:00,81.8,38.8,29.29,SSE,151,7.1,8.9,21,-99.99,,,0.00,0,rob ver 1B,2013-08-07 10:48:00,
2013-08-07 03:49:00,81.6,38.8,29.29,SE,145,6.7,7.7,21,-99.99,,,0.00,0,rob ver 1B,2013-08-07 10:49:00,
2013-08-07 03:50:00,81.4,38.8,29.29,SSE,148,6.3,7.4,21,-99.99,,,0.00,0,rob ver 1B,2013-08-07 10:50:00,
2013-08-07 03:51:00,82.4,54.0,29.35,NE,40,3.6,3.8,37,-99.99,,,0.00,0,rob ver 1A,2013-08-07 10:51:00,
2013-08-07 03:52:00,81.5,38.8,29.29,SSE,150,7.9,10.4,21,-99.99,,,0.00,0,rob ver 1B,2013-08-07 10:52:00,
2013-08-07 03:53:00,81.6,38.8,29.29,SE,146,7.1,9.0,21,-99.99,,,0.00,0,rob ver 1B,2013-08-07 10:53:00,
2013-08-07 03:54:00,81.6,38.9,29.29,SSE,150,6.8,8.2,21,-99.99,,,0.00,0,rob ver 1B,2013-08-07 10:54:00,
2013-08-07 03:55:00,81.5,38.8,29.29,SSE,152,7.3,9.3,21,-99.99,,,0.00,0,rob ver 1B,2013-08-07 10:55:00,
2013-08-07 03:56:00,82.4,53.9,29.35,NE,37,4.4,5.1,37,-99.99,,,0.00,0,rob ver 1A,2013-08-07 10:56:00,
2013-08-07 03:57:00,81.6,38.7,29.29,SSE,154,7.4,8.7,21,-99.99,,,0.00,0,rob ver 1B,2013-08-07 10:57:00,
2013-08-07 03:58:00,81.6,38.7,29.29,SSE,152,7.4,9.1,21,-99.99,,,0.00,0,rob ver 1B,2013-08-07 10:58:00,
2013-08-07 03:59:00,81.6,38.7,29.29,SSE,153,7.5,9.8,21,-99.99,,,0.00,0,rob ver 1B,2013-08-07 10:59:00,
2013-08-07 04:00:00,81.6,38.5,29.29,SSE,157,9.0,10.3,21,-99.99,,,0.00,0,rob ver 1B,2013-08-07 11:00:00,
2013-08-07 04:01:00,82.1,54.1,29.35,NNE,22,4.9,5.8,38,-99.99,,,0.00,0,rob ver 1A,2013-08-07 11:01:00,
2013-08-07 04:02:00,81.8,38.4,29.29,SSE,159,8.4,9.9,21,-99.99,,,0.00,0,rob ver 1B,2013-08-07 11:02:00,
2013-08-07 04:03:00,81.8,38.3,29.29,SSE,160,7.7,9.1,21,-99.99,,,0.00,0,rob ver 1B,2013-08-07 11:03:00,
2013-08-07 04:04:00,81.8,38.5,29.29,SSE,156,7.8,9.3,21,-99.99,,,0.00,0,rob ver 1B,2013-08-07 11:04:00,
2013-08-07 04:05:00,81.6,38.4,29.29,SSE,156,8.0,9.5,21,-99.99,,,0.00,0,rob ver 1B,2013-08-07 11:05:00,
2013-08-07 04:06:00,82.4,54.3,29.35,NNE,16,4.9,5.6,37,-99.99,,,0.00,0,rob ver 1A,2013-08-07 11:06:00,
2013-08-07 04:07:00,81.6,38.2,29.29,SSE,154,7.1,8.1,21,-99.99,,,0.00,0,rob ver 1B,2013-08-07 11:07:00,
2013-08-07 04:08:00,81.5,38.2,29.29,SSE,153,7.3,8.5,21,-99.99,,,0.00,0,rob ver 1B,2013-08-07 11:08:00,
2013-08-07 04:09:00,81.5,38.2,29.29,SSE,154,7.4,9.2,21,-99.99,,,0.00,0,rob ver 1B,2013-08-07 11:09:00,
2013-08-07 04:10:00,81.4,38.1,29.29,SSE,157,7.8,9.1,21,-99.99,,,0.00,0,rob ver 1B,2013-08-07 11:10:00,
2013-08-07 04:11:00,82.2,54.5,29.35,NE,37,4.9,5.7,38,-99.99,,,0.00,0,rob ver 1A,2013-08-07 11:11:00,
2013-08-07 04:12:00,81.6,38.0,29.29,SSE,152,7.6,9.3,21,-99.99,,,0.00,0,rob ver 1B,2013-08-07 11:12:00,
2013-08-07 04:13:00,81.6,38.1,29.29,SSE,151,7.0,7.7,21,-99.99,,,0.00,0,rob ver 1B,2013-08-07 11:13:00,
2013-08-07 04:14:00,81.4,38.1,29.29,SSE,155,6.9,8.2,21,-99.99,,,0.00,0,rob ver 1B,2013-08-07 11:14:00,
2013-08-07 04:15:00,81.3,38.2,29.29,SSE,155,6.7,7.3,21,-99.99,,,0.00,0,rob ver 1B,2013-08-07 11:15:00,
2013-08-07 04:16:00,82.0,54.5,29.35,NNE,30,5.4,6.2,38,-99.99,,,0.00,0,rob ver 1A,2013-08-07 11:16:00,
2013-08-07 04:17:00,81.1,38.2,29.29,SSE,156,6.5,8.0,21,-99.99,,,0.00,0,rob ver 1B,2013-08-07 11:17:00,
2013-08-07 04:18:00,81.1,38.2,29.29,SSE,155,6.3,8.1,21,-99.99,,,0.00,0,rob ver 1B,2013-08-07 11:18:00,
2013-08-07 04:19:00,81.0,38.2,29.29,SSE,157,6.2,7.5,21,-99.99,,,0.00,0,rob ver 1B,2013-08-07 11:19:00,
2013-08-07 04:20:00,80.9,38.2,29.29,SSE,158,5.8,7.2,21,-99.99,,,0.00,0,rob ver 1B,2013-08-07 11:20:00,
2013-08-07 04:21:00,82.1,54.5,29.35,ENE,70,3.7,5.0,38,-99.99,,,0.00,0,rob ver 1A,2013-08-07 11:21:00,
2013-08-07 04:22:00,80.7,38.0,29.29,SSE,162,6.4,8.1,21,-99.99,,,0.00,0,rob ver 1B,2013-08-07 11:22:00,
2013-08-07 04:23:00,80.7,38.0,29.29,SSE,161,6.2,6.8,21,-99.99,,,0.00,0,rob ver 1B,2013-08-07 11:23:00,
2013-08-07 04:24:00,80.7,38.1,29.29,SSE,165,6.3,7.1,21,-99.99,,,0.00,0,rob ver 1B,2013-08-07 11:24:00,
2013-08-07 04:25:00,80.7,38.0,29.29,SSE,165,6.3,7.1,21,-99.99,,,0.00,0,rob ver 1B,2013-08-07 11:25:00,
2013-08-07 04:26:00,81.6,54.5,29.35,NE,43,4.8,5.6,39,-99.99,,,0.00,0,rob ver 1A,2013-08-07 11:26:00,
2013-08-07 04:27:00,81.0,38.0,29.29,SSE,159,5.7,6.4,21,-99.99,,,0.00,0,rob ver 1B,2013-08-07 11:27:00,
2013-08-07 04:28:00,80.9,37.9,29.29,SSE,163,6.2,7.7,21,-99.99,,,0.00,0,rob ver 1B,2013-08-07 11:28:00,
2013-08-07 04:29:00,81.0,38.0,29.29,SSE,162,6.1,6.9,21,-99.99,,,0.00,0,rob ver 1B,2013-08-07 11:29:00,
2013-08-07 04:30:00,81.0,38.0,29.29,SSE,167,5.7,6.4,21,-99.99,,,0.00,0,rob ver 1B,2013-08-07 11:30:00,
2013-08-07 04:31:00,80.9,38.0,29.29,South,173,6.0,6.6,21,-99.99,,,0.00,0,rob ver 1B,2013-08-07 11:31:00,
2013-08-07 04:32:00,81.6,54.5,29.35,NNE,32,6.7,8.0,39,-99.99,,,0.00,0,rob ver 1A,2013-08-07 11:32:00,
2013-08-07 04:33:00,80.9,37.9,29.29,SSE,168,6.1,6.9,21,-99.99,,,0.00,0,rob ver 1B,2013-08-07 11:33:00,
2013-08-07 04:34:00,80.9,37.8,29.29,SSE,159,6.4,7.2,21,-99.99,,,0.00,0,rob ver 1B,2013-08-07 11:34:00,
2013-08-07 04:35:00,81.0,37.8,29.29,SSE,156,6.6,7.6,21,-99.99,,,0.00,0,rob ver 1B,2013-08-07 11:35:00,
2013-08-07 04:36:00,81.0,37.9,29.29,SSE,155,6.5,7.5,21,-99.99,,,0.00,0,rob ver 1B,2013-08-07 11:36:00,
2013-08-07 04:37:00,81.8,54.5,29.35,NE,36,7.3,8.4,38,-99.99,,,0.00,0,rob ver 1A,2013-08-07 11:37:00,
2013-08-07 04:38:00,81.0,37.8,29.29,SSE,156,6.5,7.7,21,-99.99,,,0.00,0,rob ver 1B,2013-08-07 11:38:00,
2013-08-07 04:39:00,81.1,37.8,29.29,SSE,163,5.9,6.4,21,-99.99,,,0.00,0,rob ver 1B,2013-08-07 11:39:00,
2013-08-07 04:40:00,81.0,37.8,29.29,South,171,5.8,6.4,21,-99.99,,,0.00,0,rob ver 1B,2013-08-07 11:40:00,
2013-08-07 04:41:00,80.8,37.8,29.29,South,171,6.1,6.9,21,-99.99,,,0.00,0,rob ver 1B,2013-08-07 11:41:00,
2013-08-07 04:42:00,82.5,54.3,29.35,NE,43,5.4,7.2,37,-99.99,,,0.00,0,rob ver 1A,2013-08-07 11:42:00,
2013-08-07 04:43:00,80.7,37.8,29.29,South,170,6.2,7.1,21,-99.99,,,0.00,0,rob ver 1B,2013-08-07 11:43:00,
2013-08-07 04:44:00,80.7,37.9,29.29,SSE,168,5.9,7.0,21,-99.99,,,0.00,0,rob ver 1B,2013-08-07 11:44:00,
2013-08-07 04:45:00,80.5,37.9,29.29,SSE,162,5.3,6.1,21,-99.99,,,0.00,0,rob ver 1B,2013-08-07 11:45:00,
2013-08-07 04:46:00,80.4,37.9,29.29,SSE,164,5.5,6.6,21,-99.99,,,0.00,0,rob ver 1B,2013-08-07 11:46:00,
2013-08-07 04:47:00,82.2,54.3,29.35,NE,37,4.5,5.5,38,-99.99,,,0.00,0,rob ver 1A,2013-08-07 11:47:00,
2013-08-07 04:48:00,80.1,38.1,29.29,SSE,168,6.7,7.2,22,-99.99,,,0.00,0,rob ver 1B,2013-08-07 11:48:00,
2013-08-07 04:49:00,80.1,38.0,29.29,SSE,156,6.4,6.9,22,-99.99,,,0.00,0,rob ver 1B,2013-08-07 11:49:00,
2013-08-07 04:50:00,79.9,38.1,29.29,SE,142,6.4,6.9,22,-99.99,,,0.00,0,rob ver 1B,2013-08-07 11:50:00,
2013-08-07 04:51:00,79.7,38.1,29.29,SSE,148,6.2,7.4,22,-99.99,,,0.00,0,rob ver 1B,2013-08-07 11:51:00,
2013-08-07 04:52:00,82.3,54.3,29.35,NE,34,6.9,8.5,38,-99.99,,,0.00,0,rob ver 1A,2013-08-07 11:52:00,
2013-08-07 04:53:00,79.5,38.0,29.29,SSE,148,7.3,9.7,22,-99.99,,,0.00,0,rob ver 1B,2013-08-07 11:53:00,
2013-08-07 04:54:00,79.8,37.9,29.29,SSE,153,8.3,9.2,21,-99.99,,,0.00,0,rob ver 1B,2013-08-07 11:54:00,
2013-08-07 04:55:00,80.2,37.8,29.29,SSE,155,7.3,8.5,21,-99.99,,,0.00,0,rob ver 1B,2013-08-07 11:55:00,
2013-08-07 04:56:00,80.2,37.9,29.29,SSE,159,6.7,7.6,21,-99.99,,,0.00,0,rob ver 1B,2013-08-07 11:56:00,
2013-08-07 04:57:00,82.5,54.3,29.35,NNE,25,7.4,8.6,37,-99.99,,,0.00,0,rob ver 1A,2013-08-07 11:57:00,
2013-08-07 04:58:00,80.0,38.0,29.29,SE,141,5.3,6.0,22,-99.99,,,0.00,0,rob ver 1B,2013-08-07 11:58:00,
2013-08-07 04:59:00,79.8,38.0,29.29,SE,138,4.4,5.5,22,-99.99,,,0.00,0,rob ver 1B,2013-08-07 11:59:00,
2013-08-07 05:00:00,79.7,38.0,29.29,SSE,156,4.6,6.0,22,-99.99,,,0.00,0,rob ver 1B,2013-08-07 12:00:00,
2013-08-07 05:01:00,79.6,38.0,29.29,SE,136,4.9,5.9,22,-99.99,,,0.00,0,rob ver 1B,2013-08-07 12:01:00,
2013-08-07 05:02:00,81.9,54.4,29.35,NNE,24,6.9,8.1,38,-99.99,,,0.00,0,rob ver 1A,2013-08-07 12:02:00,
2013-08-07 05:03:00,79.6,38.0,29.29,SSE,148,5.0,5.9,22,-99.99,,,0.00,0,rob ver 1B,2013-08-07 12:03:00,
2013-08-07 05:04:00,79.6,38.0,29.29,SE,135,5.0,6.0,22,-99.99,,,0.00,0,rob ver 1B,2013-08-07 12:04:00,
2013-08-07 05:05:00,79.5,38.0,29.29,SE,140,5.4,6.3,22,-99.99,,,0.00,0,rob ver 1B,2013-08-07 12:05:00,
2013-08-07 05:06:00,79.6,38.0,29.29,SSE,153,6.1,7.6,22,-99.99,,,0.00,0,rob ver 1B,2013-08-07 12:06:00,
2013-08-07 05:07:00,79.8,37.9,29.29,SSE,160,5.3,6.3,22,-99.99,,,0.00,0,rob ver 1B,2013-08-07 12:07:00,
2013-08-07 05:08:00,81.7,54.5,29.35,NNE,31,7.3,8.6,39,-99.99,,,0.00,0,rob ver 1A,2013-08-07 12:08:00,
2013-08-07 05:09:00,79.8,37.9,29.29,SE,137,5.7,6.9,22,-99.99,,,0.00,0,rob ver 1B,2013-08-07 12:09:00,
2013-08-07 05:10:00,79.7,37.9,29.29,SE,136,5.0,6.0,22,-99.99,,,0.00,0,rob ver 1B,2013-08-07 12:10:00,
2013-08-07 05:11:00,79.6,37.9,29.29,SE,137,4.0,5.1,22,-99.99,,,0.00,0,rob ver 1B,2013-08-07 12:11:00,
2013-08-07 05:12:00,79.4,37.9,29.29,SE,138,4.4,5.5,22,-99.99,,,0.00,0,rob ver 1B,2013-08-07 12:12:00,
2013-08-07 05:13:00,81.7,54.5,29.35,NNE,32,6.6,7.8,39,-99.99,,,0.00,0,rob ver 1A,2013-08-07 12:13:00,
2013-08-07 05:14:00,79.2,38.0,29.29,SSE,152,4.7,6.0,22,-99.99,,,0.00,0,rob ver 1B,2013-08-07 12:14:00,
2013-08-07 05:15:00,79.2,38.0,29.29,SSE,147,4.6,5.7,22,-99.99,,,0.00,0,rob ver 1B,2013-08-07 12:15:00,
2013-08-07 05:16:00,79.2,38.0,29.29,SSE,149,4.1,4.7,22,-99.99,,,0.00,0,rob ver 1B,2013-08-07 12:16:00,
2013-08-07 05:17:00,79.2,38.0,29.29,SSE,149,5.2,7.4,22,-99.99,,,0.00,0,rob ver 1B,2013-08-07 12:17:00,
2013-08-07 05:18:00,81.6,54.5,29.35,NE,34,6.4,7.3,39,-99.99,,,0.00,0,rob ver 1A,2013-08-07 12:18:00,
2013-08-07 05:19:00,79.5,37.9,29.29,SSE,160,5.7,6.9,22,-99.99,,,0.00,0,rob ver 1B,2013-08-07 12:19:00,
2013-08-07 05:20:00,79.7,38.0,29.29,SSE,156,5.9,6.7,22,-99.99,,,0.00,0,rob ver 1B,2013-08-07 12:20:00,
2013-08-07 05:21:00,79.8,37.9,29.29,SSE,161,5.5,6.6,22,-99.99,,,0.00,0,rob ver 1B,2013-08-07 12:21:00,
2013-08-07 05:22:00,79.9,38.0,29.29,SSE,155,5.4,6.5,22,-99.99,,,0.00,0,rob ver 1B,2013-08-07 12:22:00,
2013-08-07 05:23:00,81.3,54.5,29.35,NE,35,5.4,6.1,39,-99.99,,,0.00,0,rob ver 1A,2013-08-07 12:23:00,
2013-08-07 05:24:00,79.9,37.9,29.29,SSE,160,6.6,8.1,22,-99.99,,,0.00,0,rob ver 1B,2013-08-07 12:24:00,
2013-08-07 05:25:00,80.0,37.9,29.32,SSE,160,6.3,7.5,22,-99.99,,,0.00,0,rob ver 1B,2013-08-07 12:25:00,
2013-08-07 05:26:00,80.1,37.9,29.29,SSE,163,6.7,7.7,21,-99.99,,,0.00,0,rob ver 1B,2013-08-07 12:26:00,
2013-08-07 05:27:00,80.2,37.9,29.29,SSE,166,6.8,8.8,21,-99.99,,,0.00,0,rob ver 1B,2013-08-07 12:27:00,
2013-08-07 05:28:00,81.4,54.5,29.35,NE,34,5.3,6.6,39,-99.99,,,0.00,0,rob ver 1A,2013-08-07 12:28:00,
2013-08-07 05:29:00,80.3,37.9,29.32,SSE,161,6.0,8.0,21,-99.99,,,0.00,0,rob ver 1B,2013-08-07 12:29:00,
2013-08-07 05:30:00,80.3,37.9,29.32,SSE,155,5.5,6.8,21,-99.99,,,0.00,0,rob ver 1B,2013-08-07 12:30:00,
2013-08-07 05:31:00,80.3,38.0,29.29,SSE,163,5.4,6.1,22,-99.99,,,0.00,.165,rob ver 1B,2013-08-07 12:31:00,
2013-08-07 05:32:00,80.1,37.9,29.32,SSE,166,5.6,6.6,22,-99.99,,,0.00,.33,rob ver 1B,2013-08-07 12:32:00,
2013-08-07 05:33:00,81.3,54.5,29.38,NNE,31,4.8,5.6,39,-99.99,,,0.00,.659,rob ver 1A,2013-08-07 12:33:00,
2013-08-07 05:34:00,80.1,37.9,29.32,SSE,153,5.3,6.1,22,-99.99,,,0.00,.33,rob ver 1B,2013-08-07 12:34:00,
2013-08-07 05:35:00,80.2,37.9,29.32,SSE,153,5.3,6.0,21,-99.99,,,0.00,.33,rob ver 1B,2013-08-07 12:35:00,
2013-08-07 05:36:00,80.3,37.9,29.32,SSE,153,5.6,6.6,21,-99.99,,,0.00,.659,rob ver 1B,2013-08-07 12:36:00,
2013-08-07 05:37:00,80.4,37.9,29.32,SSE,147,4.6,5.8,21,-99.99,,,0.00,.659,rob ver 1B,2013-08-07 12:37:00,
2013-08-07 05:38:00,81.3,54.5,29.38,NNE,29,4.7,5.2,39,-99.99,,,0.00,1.648,rob ver 1A,2013-08-07 12:38:00,
2013-08-07 05:39:00,80.5,37.7,29.29,SSE,158,5.1,6.4,21,-99.99,,,0.00,1.319,rob ver 1B,2013-08-07 12:39:00,
2013-08-07 05:40:00,80.6,37.7,29.29,SSE,154,5.4,6.5,21,-99.99,,,0.00,1.648,rob ver 1B,2013-08-07 12:40:00,
2013-08-07 05:41:00,80.6,37.8,29.32,SSE,158,5.2,6.2,21,-99.99,,,0.00,1.978,rob ver 1B,2013-08-07 12:41:00,
2013-08-07 05:42:00,80.6,37.9,29.32,SSE,154,4.7,5.5,21,-99.99,,,0.00,2.308,rob ver 1B,2013-08-07 12:42:00,
2013-08-07 05:43:00,81.2,54.5,29.38,NNE,31,3.6,4.1,39,-99.99,,,0.00,4.286,rob ver 1A,2013-08-07 12:43:00,
2013-08-07 05:44:00,80.5,37.8,29.32,SSE,149,4.4,5.1,21,-99.99,,,0.00,3.627,rob ver 1B,2013-08-07 12:44:00,
2013-08-07 05:45:00,80.4,37.8,29.32,SE,146,4.5,5.1,21,-99.99,,,0.00,4.286,rob ver 1B,2013-08-07 12:45:00,
2013-08-07 05:46:00,80.3,37.8,29.32,SSE,148,4.4,5.1,21,-99.99,,,0.00,5.605,rob ver 1B,2013-08-07 12:46:00,
2013-08-07 05:47:00,80.2,37.8,29.32,SSE,152,4.5,5.4,21,-99.99,,,0.00,6.759,rob ver 1B,2013-08-07 12:47:00,
2013-08-07 05:48:00,81.2,54.5,29.38,NE,42,1.8,2.7,39,-99.99,,,0.00,9.56,rob ver 1A,2013-08-07 12:48:00,
2013-08-07 05:49:00,80.0,37.7,29.32,SSE,159,5.1,5.9,21,-99.99,,,0.00,11.54,rob ver 1B,2013-08-07 12:49:00,
2013-08-07 05:50:00,79.9,37.7,29.32,SSE,162,5.1,5.6,21,-99.99,,,0.00,15.83,rob ver 1B,2013-08-07 12:50:00,
2013-08-07 05:51:00,79.8,37.7,29.32,SSE,161,5.2,5.6,22,-99.99,,,0.00,19.78,rob ver 1B,2013-08-07 12:51:00,
2013-08-07 05:52:00,79.8,37.7,29.29,SSE,163,4.9,6.0,22,-99.99,,,0.00,23.08,rob ver 1B,2013-08-07 12:52:00,
2013-08-07 05:53:00,79.7,37.7,29.32,SSE,164,5.0,5.7,22,-99.99,,,0.00,25.72,rob ver 1B,2013-08-07 12:53:00,
2013-08-07 05:54:00,81.5,54.7,29.38,NE,36,4.8,5.6,39,-99.99,,,0.00,20.77,rob ver 1A,2013-08-07 12:54:00,
2013-08-07 05:55:00,79.7,37.7,29.32,SSE,166,5.0,5.9,22,-99.99,,,0.00,32.31,rob ver 1B,2013-08-07 12:55:00,
2013-08-07 05:56:00,79.7,37.7,29.32,SSE,162,4.9,6.0,22,-99.99,,,0.00,35.28,rob ver 1B,2013-08-07 12:56:00,
2013-08-07 05:57:00,79.7,37.7,29.32,SSE,163,4.7,5.4,22,-99.99,,,0.00,38.08,rob ver 1B,2013-08-07 12:57:00,
2013-08-07 05:58:00,79.6,37.7,29.32,SSE,163,5.0,5.6,22,-99.99,,,0.00,40.55,rob ver 1B,2013-08-07 12:58:00,
2013-08-07 05:59:00,81.5,54.4,29.38,NE,49,2.5,3.0,39,-99.99,,,0.00,35.93,rob ver 1A,2013-08-07 12:59:00,
2013-08-07 06:00:00,79.5,37.8,29.32,SSE,163,4.8,5.6,22,-99.99,,,0.00,44.84,rob ver 1B,2013-08-07 13:00:00,
2013-08-07 06:01:00,79.5,37.8,29.32,SSE,160,4.6,5.3,22,-99.99,,,0.00,47.48,rob ver 1B,2013-08-07 13:01:00,
2013-08-07 06:02:00,79.5,37.7,29.32,SSE,163,4.4,5.6,22,-99.99,,,0.00,52.09,rob ver 1B,2013-08-07 13:02:00,
2013-08-07 06:03:00,79.5,37.7,29.32,South,169,4.2,5.2,22,-99.99,,,0.00,58.36,rob ver 1B,2013-08-07 13:03:00,
2013-08-07 06:04:00,81.0,54.5,29.38,NE,35,2.6,3.9,40,-99.99,,,0.00,71.4,rob ver 1A,2013-08-07 13:04:00,
2013-08-07 06:05:00,79.5,37.8,29.32,SSE,160,4.2,5.1,22,-99.99,,,0.00,74.5,rob ver 1B,2013-08-07 13:05:00,
2013-08-07 06:06:00,79.6,37.8,29.32,SSE,160,4.4,5.2,22,-99.99,,,0.00,83.7,rob ver 1B,2013-08-07 13:06:00,
2013-08-07 06:07:00,79.6,37.9,29.32,SSE,161,4.3,4.9,22,-99.99,,,0.00,94.3,rob ver 1B,2013-08-07 13:07:00,
2013-08-07 06:08:00,79.6,37.9,29.32,SSE,160,4.3,5.3,22,-99.99,,,0.00,106.2,rob ver 1B,2013-08-07 13:08:00,
2013-08-07 06:09:00,81.2,54.6,29.38,NE,37,4.5,5.0,39,-99.99,,,0.00,117,rob ver 1A,2013-08-07 13:09:00,
2013-08-07 06:10:00,79.7,38.0,29.32,SSE,153,4.1,5.0,22,-99.99,,,0.00,132.5,rob ver 1B,2013-08-07 13:10:00,
2013-08-07 06:11:00,79.7,38.0,29.32,SSE,155,3.9,4.5,22,-99.99,,,0.00,146.4,rob ver 1B,2013-08-07 13:11:00,
2013-08-07 06:12:00,79.7,38.0,29.32,SSE,153,4.0,4.6,22,-99.99,,,0.00,160.2,rob ver 1B,2013-08-07 13:12:00,
2013-08-07 06:13:00,79.7,38.0,29.32,SSE,152,3.9,5.1,22,-99.99,,,0.00,174.1,rob ver 1B,2013-08-07 13:13:00,
2013-08-07 06:14:00,81.2,54.6,29.38,NE,38,5.0,6.0,39,-99.99,,,0.00,171.3,rob ver 1A,2013-08-07 13:14:00,
2013-08-07 06:15:00,79.9,38.1,29.32,SSE,155,3.6,4.3,22,-99.99,,,0.00,200.5,rob ver 1B,2013-08-07 13:15:00,
2013-08-07 06:16:00,79.8,38.1,29.32,SSE,154,3.6,4.6,22,-99.99,,,0.00,213.3,rob ver 1B,2013-08-07 13:16:00,
2013-08-07 06:17:00,79.9,38.1,29.32,SSE,157,3.8,4.6,22,-99.99,,,0.00,225.5,rob ver 1B,2013-08-07 13:17:00,
2013-08-07 06:18:00,79.9,38.2,29.32,SSE,156,3.4,4.1,22,-99.99,,,0.00,237.7,rob ver 1B,2013-08-07 13:18:00,
2013-08-07 06:19:00,81.4,54.7,29.38,NE,43,4.4,5.5,39,-99.99,,,0.00,259.5,rob ver 1A,2013-08-07 13:19:00,
2013-08-07 06:20:00,80.0,38.2,29.32,SSE,154,3.5,4.2,22,-99.99,,,0.00,265.4,rob ver 1B,2013-08-07 13:20:00,
2013-08-07 06:21:00,80.0,38.2,29.32,SSE,151,3.1,3.9,22,-99.99,,,0.00,272.5,rob ver 1B,2013-08-07 13:21:00,
2013-08-07 06:22:00,80.1,38.2,29.32,SSE,152,3.0,3.4,22,-99.99,,,0.00,275.6,rob ver 1B,2013-08-07 13:22:00,
2013-08-07 06:23:00,80.1,38.2,29.32,SSE,152,2.9,4.0,22,-99.99,,,0.00,283.2,rob ver 1B,2013-08-07 13:23:00,
2013-08-07 06:24:00,81.4,54.7,29.38,NE,46,4.7,6.1,39,-99.99,,,0.00,337.3,rob ver 1A,2013-08-07 13:24:00,
2013-08-07 06:25:00,80.1,38.3,29.32,SSE,156,3.4,3.9,22,-99.99,,,0.00,311.3,rob ver 1B,2013-08-07 13:25:00,
2013-08-07 06:26:00,80.1,38.3,29.32,SSE,157,3.7,4.6,22,-99.99,,,0.00,325.8,rob ver 1B,2013-08-07 13:26:00,
2013-08-07 06:27:00,80.2,38.4,29.32,SSE,158,4.2,5.4,22,-99.99,,,0.00,339.1,rob ver 1B,2013-08-07 13:27:00,
2013-08-07 06:28:00,80.3,38.4,29.32,SSE,150,3.8,4.7,22,-99.99,,,0.00,350.2,rob ver 1B,2013-08-07 13:28:00,
2013-08-07 06:29:00,81.6,54.7,29.38,NE,53,5.0,6.0,39,-99.99,,,0.00,421.7,rob ver 1A,2013-08-07 13:29:00,
2013-08-07 06:30:00,80.5,38.4,29.32,SSE,147,3.3,4.4,22,-99.99,,,0.00,364.3,rob ver 1B,2013-08-07 13:30:00,
2013-08-07 06:31:00,80.5,38.4,29.32,SSE,149,3.1,3.7,22,-99.99,,,0.00,368.6,rob ver 1B,2013-08-07 13:31:00,
2013-08-07 06:32:00,80.5,38.4,29.32,SE,143,2.7,3.2,22,-99.99,,,0.00,366,rob ver 1B,2013-08-07 13:32:00,
2013-08-07 06:33:00,80.5,38.4,29.32,SE,138,2.8,3.4,22,-99.99,,,0.00,347.2,rob ver 1B,2013-08-07 13:33:00,
2013-08-07 06:34:00,80.5,38.4,29.32,SE,143,2.7,3.9,22,-99.99,,,0.00,333.8,rob ver 1B,2013-08-07 13:34:00,
2013-08-07 06:35:00,81.7,54.8,29.38,NE,54,5.5,7.7,39,-99.99,,,0.00,504.7,rob ver 1A,2013-08-07 13:35:00,
2013-08-07 06:36:00,80.3,38.5,29.32,SE,136,3.1,3.8,22,-99.99,,,0.00,296.8,rob ver 1B,2013-08-07 13:36:00,
2013-08-07 06:37:00,80.2,38.4,29.32,SE,126,3.1,3.6,22,-99.99,,,0.00,352.5,rob ver 1B,2013-08-07 13:37:00,
2013-08-07 06:38:00,80.1,38.5,29.32,SE,126,2.4,3.0,22,-99.99,,,0.00,325.1,rob ver 1B,2013-08-07 13:38:00,
2013-08-07 06:39:00,80.0,38.5,29.32,SE,126,2.1,2.7,22,-99.99,,,0.00,361.4,rob ver 1B,2013-08-07 13:39:00,
2013-08-07 06:40:00,82.0,54.8,29.38,NE,56,5.4,6.9,39,-99.99,,,0.00,594.4,rob ver 1A,2013-08-07 13:40:00,
2013-08-07 06:41:00,80.0,38.5,29.32,ESE,116,1.9,2.5,22,-99.99,,,0.00,361.4,rob ver 1B,2013-08-07 13:41:00,
2013-08-07 06:42:00,80.0,38.5,29.32,East,101,1.6,2.0,22,-99.99,,,0.00,338.3,rob ver 1B,2013-08-07 13:42:00,
2013-08-07 06:43:00,80.0,38.5,29.32,East,97,1.4,1.9,22,-99.99,,,0.00,330.6,rob ver 1B,2013-08-07 13:43:00,
2013-08-07 06:44:00,80.0,38.4,29.32,ESE,104,1.3,2.1,22,-99.99,,,0.00,462.4,rob ver 1B,2013-08-07 13:44:00,
2013-08-07 06:45:00,82.3,54.8,29.38,ENE,57,5.7,7.6,38,-99.99,,,0.00,688.7,rob ver 1A,2013-08-07 13:45:00,
2013-08-07 06:46:00,80.2,38.5,29.32,ESE,108,0.8,1.1,22,-99.99,,,0.00,456.3,rob ver 1B,2013-08-07 13:46:00,
2013-08-07 06:47:00,80.3,38.5,29.32,ESE,117,0.5,0.7,22,-99.99,,,0.00,546.9,rob ver 1B,2013-08-07 13:47:00,
2013-08-07 06:48:00,80.4,38.5,29.32,SE,141,0.7,1.2,22,-99.99,,,0.00,507.8,rob ver 1B,2013-08-07 13:48:00,
2013-08-07 06:49:00,80.6,38.5,29.32,ESE,123,0.7,1.2,22,-99.99,,,0.00,478.8,rob ver 1B,2013-08-07 13:49:00,
2013-08-07 06:50:00,82.6,54.9,29.38,ENE,57,6.2,8.1,38,-99.99,,,0.00,782,rob ver 1A,2013-08-07 13:50:00,
2013-08-07 06:51:00,80.8,38.6,29.32,SSE,158,1.0,2.7,22,-99.99,,,0.00,574,rob ver 1B,2013-08-07 13:51:00,
2013-08-07 06:52:00,80.9,38.7,29.32,SSE,162,1.4,2.1,22,-99.99,,,0.00,617.7,rob ver 1B,2013-08-07 13:52:00,
2013-08-07 06:53:00,81.1,38.8,29.32,South,175,1.3,1.9,22,-99.99,,,0.00,550.6,rob ver 1B,2013-08-07 13:53:00,
2013-08-07 06:54:00,81.1,38.9,29.32,South,175,1.4,2.1,22,-99.99,,,0.00,744,rob ver 1B,2013-08-07 13:54:00,
2013-08-07 06:55:00,83.0,54.9,29.38,ENE,60,5.4,7.4,38,-99.99,,,0.00,896,rob ver 1A,2013-08-07 13:55:00,
2013-08-07 06:56:00,81.6,38.9,29.32,South,177,0.8,1.3,21,-99.99,,,0.00,824,rob ver 1B,2013-08-07 13:56:00,
2013-08-07 06:57:00,81.9,38.9,29.32,South,183,0.7,0.9,21,-99.99,,,0.00,840,rob ver 1B,2013-08-07 13:57:00,
2013-08-07 06:58:00,82.2,38.9,29.32,NNE,29,0.1,0.3,21,-99.99,,,0.00,874,rob ver 1B,2013-08-07 13:58:00,
2013-08-07 06:59:00,82.5,38.6,29.32,North,357,0.9,1.5,20,-99.99,,,0.00,895,rob ver 1B,2013-08-07 13:59:00,
2013-08-07 07:00:00,83.5,54.8,29.38,ENE,62,5.7,7.2,37,-99.99,,,0.00,997,rob ver 1A,2013-08-07 14:00:00,
2013-08-07 07:01:00,82.1,38.5,29.32,NNW,344,1.9,2.0,21,-99.99,,,0.00,944,rob ver 1B,2013-08-07 14:01:00,
2013-08-07 07:02:00,82.0,38.8,29.32,NNW,346,1.7,1.9,21,-99.99,,,0.00,993,rob ver 1B,2013-08-07 14:02:00,
2013-08-07 07:03:00,82.0,38.7,29.32,North,349,1.2,1.5,21,-99.99,,,0.00,1036,rob ver 1B,2013-08-07 14:03:00,
2013-08-07 07:04:00,82.1,38.7,29.32,NNW,331,1.3,1.9,21,-99.99,,,0.00,1062,rob ver 1B,2013-08-07 14:04:00,
2013-08-07 07:05:00,84.0,54.8,29.38,ENE,70,5.3,7.1,36,-99.99,,,0.00,1108,rob ver 1A,2013-08-07 14:05:00,
2013-08-07 07:06:00,82.5,39.0,29.32,North,351,0.8,1.1,21,-99.99,,,0.00,1136,rob ver 1B,2013-08-07 14:06:00,
2013-08-07 07:07:00,82.7,39.1,29.32,North,1,1.0,1.2,20,-99.99,,,0.00,1187,rob ver 1B,2013-08-07 14:07:00,
2013-08-07 07:08:00,82.9,38.8,29.32,North,359,1.0,1.3,20,-99.99,,,0.00,1242,rob ver 1B,2013-08-07 14:08:00,
2013-08-07 07:09:00,83.1,38.9,29.32,NNW,346,0.9,1.1,20,-99.99,,,0.00,1225,rob ver 1B,2013-08-07 14:09:00,
2013-08-07 07:10:00,83.3,38.7,29.32,North,2,1.2,1.4,20,-99.99,,,0.00,1312,rob ver 1B,2013-08-07 14:10:00,
2013-08-07 07:11:00,84.4,54.6,29.38,ENE,73,5.1,7.2,35,-99.99,,,0.00,1225,rob ver 1A,2013-08-07 14:11:00,
2013-08-07 07:12:00,83.3,38.7,29.32,NNE,18,1.5,1.7,20,-99.99,,,0.00,1313,rob ver 1B,2013-08-07 14:12:00,
2013-08-07 07:13:00,83.4,38.7,29.32,NNE,19,1.7,2.1,20,-99.99,,,0.00,1297,rob ver 1B,2013-08-07 14:13:00,
2013-08-07 07:14:00,83.4,38.5,29.32,NNE,12,1.8,2.0,20,-99.99,,,0.00,1313,rob ver 1B,2013-08-07 14:14:00,
2013-08-07 07:15:00,83.5,38.6,29.32,NNE,12,1.4,1.8,20,-99.99,,,0.00,1450,rob ver 1B,2013-08-07 14:15:00,
2013-08-07 07:16:00,84.6,54.5,29.38,ENE,68,5.4,6.7,35,-99.99,,,0.00,1333,rob ver 1A,2013-08-07 14:16:00,
2013-08-07 07:17:00,83.6,38.5,29.32,NNE,13,1.8,2.3,20,-99.99,,,0.00,961,rob ver 1B,2013-08-07 14:17:00,
2013-08-07 07:18:00,83.5,38.5,29.32,North,357,1.7,2.1,20,-99.99,,,0.00,1083,rob ver 1B,2013-08-07 14:18:00,
2013-08-07 07:19:00,83.6,38.6,29.32,North,351,1.8,2.5,20,-99.99,,,0.00,1094,rob ver 1B,2013-08-07 14:19:00,
2013-08-07 07:20:00,83.4,38.6,29.32,North,8,2.6,3.2,20,-99.99,,,0.00,1195,rob ver 1B,2013-08-07 14:20:00,
2013-08-07 07:21:00,84.9,54.3,29.41,ENE,68,6.5,8.4,34,-99.99,,,0.00,1445,rob ver 1A,2013-08-07 14:21:00,
2013-08-07 07:22:00,83.6,38.6,29.32,North,11,1.7,2.0,20,-99.99,,,0.00,1213,rob ver 1B,2013-08-07 14:22:00,
2013-08-07 07:23:00,83.6,38.6,29.32,NNW,348,1.9,2.3,20,-99.99,,,0.00,1539,rob ver 1B,2013-08-07 14:23:00,
2013-08-07 07:24:00,83.8,38.5,29.32,North,353,1.4,2.2,19,-99.99,,,0.00,1594,rob ver 1B,2013-08-07 14:24:00,
2013-08-07 07:25:00,83.9,38.6,29.32,NNW,328,1.5,2.6,19,-99.99,,,0.00,1640,rob ver 1B,2013-08-07 14:25:00,
2013-08-07 07:26:00,85.5,54.4,29.41,NE,56,4.7,6.0,34,-99.99,,,0.00,1562,rob ver 1A,2013-08-07 14:26:00,
2013-08-07 07:27:00,84.3,38.7,29.32,West,272,2.7,3.7,19,-99.99,,,0.00,1320,rob ver 1B,2013-08-07 14:27:00,
2013-08-07 07:28:00,84.1,38.7,29.32,West,266,3.6,4.0,20,-99.99,,,0.00,1601,rob ver 1B,2013-08-07 14:28:00,
2013-08-07 07:29:00,83.9,38.8,29.32,West,273,2.0,3.1,20,-99.99,,,0.00,1765,rob ver 1B,2013-08-07 14:29:00,
2013-08-07 07:30:00,84.0,38.8,29.32,West,280,1.8,2.5,20,-99.99,,,0.00,1780,rob ver 1B,2013-08-07 14:30:00,
2013-08-07 07:31:00,86.0,54.5,29.41,East,82,5.5,7.2,34,-99.99,,,0.00,1678,rob ver 1A,2013-08-07 14:31:00,
2013-08-07 07:32:00,84.3,38.8,29.32,WSW,247,1.8,2.2,20,-99.99,,,0.00,1774,rob ver 1B,2013-08-07 14:32:00,
2013-08-07 07:33:00,84.4,38.9,29.32,WSW,242,1.6,2.3,19,-99.99,,,0.00,1916,rob ver 1B,2013-08-07 14:33:00,
2013-08-07 07:35:00,84.8,38.9,29.32,WSW,242,1.2,1.9,19,-99.99,,,0.00,1976,rob ver 1B,2013-08-07 14:35:00,
2013-08-07 07:36:00,86.4,54.6,29.41,ENE,77,5.6,7.2,33,-99.99,,,0.00,1802,rob ver 1A,2013-08-07 14:36:00,
2013-08-07 07:37:00,85.3,38.9,29.32,SW,218,1.8,2.3,19,-99.99,,,0.00,1884,rob ver 1B,2013-08-07 14:37:00,
2013-08-07 07:38:00,85.4,38.9,29.32,SSW,205,1.5,2.0,19,-99.99,,,0.00,2053,rob ver 1B,2013-08-07 14:38:00,
2013-08-07 07:39:00,85.6,39.1,29.32,SSW,204,1.4,2.1,19,-99.99,,,0.00,2089,rob ver 1B,2013-08-07 14:39:00,
2013-08-07 07:40:00,85.8,38.9,29.32,SW,220,2.0,2.9,18,-99.99,,,0.00,2113,rob ver 1B,2013-08-07 14:40:00,
2013-08-07 07:41:00,86.7,54.8,29.41,East,79,6.1,8.4,33,-99.99,,,0.00,1947,rob ver 1A,2013-08-07 14:41:00,
2013-08-07 07:42:00,85.8,38.7,29.32,SSW,211,2.6,3.4,18,-99.99,,,0.00,2163,rob ver 1B,2013-08-07 14:42:00,
2013-08-07 07:43:00,85.8,38.9,29.32,SSW,210,2.3,2.7,19,-99.99,,,0.00,2180,rob ver 1B,2013-08-07 14:43:00,
2013-08-07 07:44:00,85.8,39.0,29.32,SSW,208,1.8,2.4,18,-99.99,,,0.00,2148,rob ver 1B,2013-08-07 14:44:00,
2013-08-07 07:45:00,86.0,39.0,29.35,SW,227,1.7,3.3,18,-99.99,,,0.00,2207,rob ver 1B,2013-08-07 14:45:00,
2013-08-07 07:46:00,87.0,54.9,29.41,ENE,71,5.1,6.6,33,-99.99,,,0.00,2061,rob ver 1A,2013-08-07 14:46:00,
2013-08-07 07:47:00,85.9,38.6,29.32,WSW,254,4.0,4.9,18,-99.99,,,0.00,2263,rob ver 1B,2013-08-07 14:47:00,
2013-08-07 07:48:00,85.7,38.7,29.32,West,262,4.3,5.1,18,-99.99,,,0.00,2232,rob ver 1B,2013-08-07 14:48:00,
2013-08-07 07:49:00,85.4,38.8,29.32,WSW,258,4.3,5.5,19,-99.99,,,0.00,2258,rob ver 1B,2013-08-07 14:49:00,
2013-08-07 07:50:00,85.3,39.0,29.35,West,260,3.6,4.8,19,-99.99,,,0.00,2274,rob ver 1B,2013-08-07 14:50:00,
2013-08-07 07:51:00,87.6,54.9,29.41,ENE,73,7.5,9.6,33,-99.99,,,0.00,2178,rob ver 1A,2013-08-07 14:51:00,
2013-08-07 07:52:00,85.1,38.9,29.32,West,266,4.4,5.0,19,-99.99,,,0.00,2162,rob ver 1B,2013-08-07 14:52:00,
2013-08-07 07:53:00,85.0,38.9,29.32,West,271,4.3,4.8,19,-99.99,,,0.00,2309,rob ver 1B,2013-08-07 14:53:00,
2013-08-07 07:54:00,85.0,38.9,29.35,West,267,4.0,4.7,19,-99.99,,,0.00,2305,rob ver 1B,2013-08-07 14:54:00,
2013-08-07 07:55:00,85.0,39.0,29.32,West,261,4.0,4.7,19,-99.99,,,0.00,2324,rob ver 1B,2013-08-07 14:55:00,
2013-08-07 07:56:00,87.7,55.0,29.41,ENE,69,5.6,7.9,32,-99.99,,,0.00,2300,rob ver 1A,2013-08-07 14:56:00,
2013-08-07 07:57:00,84.9,39.0,29.32,West,277,4.3,5.7,19,-99.99,,,0.00,2352,rob ver 1B,2013-08-07 14:57:00,
2013-08-07 07:58:00,84.9,39.1,29.32,WNW,287,3.3,4.2,19,-99.99,,,0.00,2358,rob ver 1B,2013-08-07 14:58:00,
2013-08-07 07:59:00,84.9,38.9,29.32,West,278,4.3,5.0,19,-99.99,,,0.00,2348,rob ver 1B,2013-08-07 14:59:00,
2013-08-07 08:00:00,84.9,38.9,29.32,West,277,3.3,4.8,19,-99.99,,,0.00,2306,rob ver 1B,2013-08-07 15:00:00,
2013-08-07 08:01:00,87.8,54.9,29.41,ENE,73,8.7,10.2,32,-99.99,,,0.00,2423,rob ver 1A,2013-08-07 15:01:00,
2013-08-07 08:02:00,85.1,38.9,29.32,WNW,286,2.9,4.0,19,-99.99,,,0.00,2375,rob ver 1B,2013-08-07 15:02:00,
2013-08-07 08:03:00,85.2,39.0,29.35,NW,305,2.5,3.4,19,-99.99,,,0.00,2406,rob ver 1B,2013-08-07 15:03:00,
2013-08-07 08:04:00,85.4,39.0,29.35,WNW,297,1.4,2.7,19,-99.99,,,0.00,2418,rob ver 1B,2013-08-07 15:04:00,
2013-08-07 08:05:00,85.7,38.9,29.32,WNW,286,2.2,3.2,18,-99.99,,,0.00,2429,rob ver 1B,2013-08-07 15:05:00,
2013-08-07 08:06:00,88.2,54.9,29.41,ENE,60,6.8,9.1,32,-99.99,,,0.00,2542,rob ver 1A,2013-08-07 15:06:00,
2013-08-07 08:07:00,86.1,38.6,29.35,WNW,298,1.2,1.5,18,-99.99,,,0.00,2439,rob ver 1B,2013-08-07 15:07:00,
2013-08-07 08:08:00,86.4,38.4,29.35,NNW,346,1.7,2.3,18,-99.99,,,0.00,2456,rob ver 1B,2013-08-07 15:08:00,
2013-08-07 08:09:00,86.3,38.2,29.35,North,1,1.9,2.4,18,-99.99,,,0.00,2470,rob ver 1B,2013-08-07 15:09:00,
2013-08-07 08:10:00,86.4,38.1,29.35,North,10,1.3,1.9,17,-99.99,,,0.00,2488,rob ver 1B,2013-08-07 15:10:00,
2013-08-07 08:11:00,88.4,55.0,29.41,East,80,7.7,10.0,32,-99.99,,,0.00,2673,rob ver 1A,2013-08-07 15:11:00,
2013-08-07 08:12:00,87.1,38.0,29.35,West,281,0.7,1.7,17,-99.99,,,0.00,2555,rob ver 1B,2013-08-07 15:12:00,
2013-08-07 08:13:00,87.6,38.4,29.35,SSW,193,0.4,0.8,17,-99.99,,,0.00,2585,rob ver 1B,2013-08-07 15:13:00,
2013-08-07 08:14:00,88.1,38.4,29.35,NW,321,0.3,0.7,17,-99.99,,,0.00,2585,rob ver 1B,2013-08-07 15:14:00,
2013-08-07 08:15:00,88.7,38.2,29.35,ENE,57,0.4,0.8,16,-99.99,,,0.00,2628,rob ver 1B,2013-08-07 15:15:00,
2013-08-07 08:16:00,89.2,37.7,29.35,NW,310,0.9,2.0,16,-99.99,,,0.00,2631,rob ver 1B,2013-08-07 15:16:00,
2013-08-07 08:17:00,89.0,55.0,29.41,East,79,7.9,10.0,31,-99.99,,,0.00,0,rob ver 1A,2013-08-07 15:17:00,
2013-08-07 08:18:00,89.5,37.1,29.35,NNW,348,0.6,1.2,15,-99.99,,,0.00,0,rob ver 1B,2013-08-07 15:18:00,
2013-08-07 08:19:00,89.7,36.8,29.35,West,273,0.8,1.4,15,-99.99,,,0.00,0,rob ver 1B,2013-08-07 15:19:00,
2013-08-07 08:20:00,89.8,36.7,29.35,ESE,119,1.8,2.7,15,-99.99,,,0.00,0,rob ver 1B,2013-08-07 15:20:00,
2013-08-07 08:21:00,89.2,36.8,29.35,ESE,113,1.6,2.2,16,-99.99,,,0.00,0,rob ver 1B,2013-08-07 15:21:00,
2013-08-07 08:22:00,88.7,55.0,29.41,East,79,7.7,10.5,31,-99.99,,,0.00,0,rob ver 1A,2013-08-07 15:22:00,
2013-08-07 08:23:00,88.8,37.9,29.35,ESE,114,1.3,1.8,16,-99.99,,,0.00,0,rob ver 1B,2013-08-07 15:23:00,
2013-08-07 08:24:00,88.6,37.8,29.35,SE,124,0.8,1.4,16,-99.99,,,0.00,0,rob ver 1B,2013-08-07 15:24:00,
2013-08-07 08:25:00,88.7,37.7,29.35,SE,127,0.9,1.5,16,-99.99,,,0.00,0,rob ver 1B,2013-08-07 15:25:00,
2013-08-07 08:26:00,88.8,37.1,29.35,SSE,150,1.6,2.5,15,-99.99,,,0.00,0,rob ver 1B,2013-08-07 15:26:00,
2013-08-07 08:27:00,89.1,55.0,29.41,ENE,60,6.4,8.4,31,-99.99,,,0.00,0,rob ver 1A,2013-08-07 15:27:00,
2013-08-07 08:28:00,88.9,37.0,29.35,South,171,1.0,2.2,16,-99.99,,,0.00,0,rob ver 1B,2013-08-07 15:28:00,
2013-08-07 08:29:00,89.0,37.9,29.35,SE,137,2.8,4.0,16,-99.99,,,0.00,0,rob ver 1B,2013-08-07 15:29:00,
2013-08-07 08:30:00,88.6,38.0,29.35,SSE,153,3.2,4.5,16,-99.99,,,0.00,0,rob ver 1B,2013-08-07 15:30:00,
2013-08-07 08:31:00,88.2,37.9,29.35,SE,143,2.8,3.7,17,-99.99,,,0.00,0,rob ver 1B,2013-08-07 15:31:00,
2013-08-07 08:32:00,89.7,55.1,29.41,ESE,105,9.0,11.0,31,-99.99,,,0.00,0,rob ver 1A,2013-08-07 15:32:00,
2013-08-07 08:33:00,88.1,38.1,29.35,South,187,0.6,1.3,16,-99.99,,,0.00,0,rob ver 1B,2013-08-07 15:33:00,
2013-08-07 08:34:00,88.5,37.4,29.35,South,176,0.7,1.1,15,-99.99,,,0.00,0,rob ver 1B,2013-08-07 15:34:00,
2013-08-07 08:35:00,89.0,36.4,29.35,SSW,195,0.9,1.6,15,-99.99,,,0.00,0,rob ver 1B,2013-08-07 15:35:00,
2013-08-07 08:36:00,89.5,36.4,29.35,South,179,0.5,1.1,15,-99.99,,,0.00,0,rob ver 1B,2013-08-07 15:36:00,
2013-08-07 08:37:00,89.3,55.0,29.41,East,81,5.7,8.3,31,-99.99,,,0.00,0,rob ver 1A,2013-08-07 15:37:00,
2013-08-07 08:38:00,89.9,36.2,29.35,East,91,1.8,3.1,15,-99.99,,,0.00,0,rob ver 1B,2013-08-07 15:38:00,
2013-08-07 08:39:00,89.8,36.1,29.35,ENE,68,0.6,1.0,14,-99.99,,,0.00,0,rob ver 1B,2013-08-07 15:39:00,
2013-08-07 08:40:00,90.3,36.2,29.35,North,354,0.7,1.4,14,-99.99,,,0.00,0,rob ver 1B,2013-08-07 15:40:00,
2013-08-07 08:41:00,90.7,35.8,29.35,NE,44,0.9,1.6,14,-99.99,,,0.00,0,rob ver 1B,2013-08-07 15:41:00,
2013-08-07 08:42:00,90.2,55.0,29.41,East,80,6.3,8.8,30,-99.99,,,0.00,0,rob ver 1A,2013-08-07 15:42:00,
2013-08-07 08:43:00,91.5,36.1,29.35,SSW,203,1.0,1.9,14,-99.99,,,0.00,0,rob ver 1B,2013-08-07 15:43:00,
2013-08-07 08:44:00,91.6,35.7,29.35,West,270,2.1,3.6,14,-99.99,,,0.00,0,rob ver 1B,2013-08-07 15:44:00,
2013-08-07 08:45:00,91.3,35.7,29.35,WNW,291,1.8,2.7,14,-99.99,,,0.00,0,rob ver 1B,2013-08-07 15:45:00,
2013-08-07 08:46:00,91.1,35.9,29.35,WNW,303,1.7,2.3,14,-99.99,,,0.00,0,rob ver 1B,2013-08-07 15:46:00,
2013-08-07 08:47:00,90.4,55.2,29.41,SE,137,5.7,7.2,30,-99.99,,,0.00,0,rob ver 1A,2013-08-07 15:47:00,
2013-08-07 08:48:00,90.9,35.9,29.35,WNW,302,1.1,1.9,14,-99.99,,,0.00,0,rob ver 1B,2013-08-07 15:48:00,
2013-08-07 08:49:00,91.1,36.1,29.35,WSW,243,1.3,1.7,14,-99.99,,,0.00,0,rob ver 1B,2013-08-07 15:49:00,
2013-08-07 08:50:00,91.3,36.0,29.35,SW,235,1.0,1.4,14,-99.99,,,0.00,0,rob ver 1B,2013-08-07 15:50:00,
2013-08-07 08:51:00,91.6,36.1,29.35,WNW,290,1.1,1.8,14,-99.99,,,0.00,0,rob ver 1B,2013-08-07 15:51:00,
2013-08-07 08:52:00,90.5,55.0,29.41,SSW,200,4.6,6.1,30,-99.99,,,0.00,0,rob ver 1A,2013-08-07 15:52:00,
2013-08-07 08:53:00,91.7,35.1,29.35,WSW,253,2.3,3.8,13,-99.99,,,0.00,0,rob ver 1B,2013-08-07 15:53:00,
2013-08-07 08:54:00,91.3,35.2,29.35,West,262,4.0,6.4,14,-99.99,,,0.00,0,rob ver 1B,2013-08-07 15:54:00,
2013-08-07 08:55:00,90.8,35.3,29.35,NW,312,2.5,3.4,14,-99.99,,,0.00,0,rob ver 1B,2013-08-07 15:55:00,
2013-08-07 08:56:00,90.7,35.5,29.35,SW,228,3.0,4.2,13,-99.99,,,0.00,0,rob ver 1B,2013-08-07 15:56:00,
2013-08-07 08:57:00,90.9,55.1,29.41,SE,143,5.9,7.8,29,-99.99,,,0.00,0,rob ver 1A,2013-08-07 15:57:00,
2013-08-07 08:58:00,90.8,34.6,29.35,WSW,247,4.2,5.5,13,-99.99,,,0.00,0,rob ver 1B,2013-08-07 15:58:00,
2013-08-07 08:59:00,90.6,34.7,29.35,WSW,240,3.3,4.7,14,-99.99,,,0.00,0,rob ver 1B,2013-08-07 15:59:00,
2013-08-07 09:00:00,90.6,34.6,29.35,WSW,257,3.8,5.0,13,-99.99,,,0.00,0,rob ver 1B,2013-08-07 16:00:00,
2013-08-07 09:01:00,90.5,34.3,29.35,WSW,248,4.6,5.8,13,-99.99,,,0.00,0,rob ver 1B,2013-08-07 16:01:00,
2013-08-07 09:02:00,90.5,34.4,29.35,WSW,254,4.6,6.8,13,-99.99,,,0.00,0,rob ver 1B,2013-08-07 16:02:00,
2013-08-07 09:03:00,90.6,54.9,29.41,ESE,104,6.8,8.6,30,-99.99,,,0.00,0,rob ver 1A,2013-08-07 16:03:00,
2013-08-07 09:04:00,90.4,33.8,29.35,West,268,4.7,7.5,13,-99.99,,,0.00,0,rob ver 1B,2013-08-07 16:04:00,
2013-08-07 09:05:00,90.5,34.0,29.35,West,264,3.4,5.7,13,-99.99,,,0.00,0,rob ver 1B,2013-08-07 16:05:00,
2013-08-07 09:06:00,90.5,33.9,29.35,West,272,4.5,6.2,13,-99.99,,,0.00,0,rob ver 1B,2013-08-07 16:06:00,
2013-08-07 09:07:00,90.4,34.0,29.35,WSW,245,3.3,5.4,13,-99.99,,,0.00,0,rob ver 1B,2013-08-07 16:07:00,
2013-08-07 09:08:00,91.0,55.0,29.41,ESE,109,3.0,4.5,29,-99.99,,,0.00,0,rob ver 1A,2013-08-07 16:08:00,
2013-08-07 09:09:00,90.4,33.9,29.35,WSW,253,4.6,5.7,13,-99.99,,,0.00,0,rob ver 1B,2013-08-07 16:09:00,
2013-08-07 09:10:00,90.4,33.9,29.35,WSW,239,4.1,5.8,13,-99.99,,,0.00,0,rob ver 1B,2013-08-07 16:10:00,
2013-08-07 09:11:00,90.5,34.1,29.35,WSW,251,2.6,3.6,13,-99.99,,,0.00,0,rob ver 1B,2013-08-07 16:11:00,
2013-08-07 09:12:00,90.7,33.8,29.35,WSW,248,4.8,6.4,13,-99.99,,,0.00,0,rob ver 1B,2013-08-07 16:12:00,
2013-08-07 09:13:00,90.9,54.8,29.41,East,93,4.6,6.5,29,-99.99,,,0.00,0,rob ver 1A,2013-08-07 16:13:00,
2013-08-07 09:14:00,91.0,33.6,29.35,SW,234,5.2,6.8,13,-99.99,,,0.00,0,rob ver 1B,2013-08-07 16:14:00,
2013-08-07 09:15:00,91.0,33.6,29.35,SW,234,4.9,7.0,13,-99.99,,,0.00,0,rob ver 1B,2013-08-07 16:15:00,
2013-08-07 09:16:00,90.9,33.6,29.35,WSW,240,5.6,7.3,13,-99.99,,,0.00,0,rob ver 1B,2013-08-07 16:16:00,
2013-08-07 09:17:00,90.6,33.6,29.35,WSW,243,4.9,6.2,13,-99.99,,,0.00,0,rob ver 1B,2013-08-07 16:17:00,
2013-08-07 09:18:00,91.3,54.9,29.41,South,183,3.6,5.1,29,-99.99,,,0.00,0,rob ver 1A,2013-08-07 16:18:00,
2013-08-07 09:19:00,90.7,33.6,29.35,WSW,238,4.5,6.8,13,-99.99,,,0.00,0,rob ver 1B,2013-08-07 16:19:00,
2013-08-07 09:20:00,90.8,33.8,29.35,WSW,241,3.4,4.7,13,-99.99,,,0.00,0,rob ver 1B,2013-08-07 16:20:00,
2013-08-07 09:21:00,90.9,33.6,29.35,WSW,238,5.3,7.5,12,-99.99,,,0.00,0,rob ver 1B,2013-08-07 16:21:00,
2013-08-07 09:22:00,90.9,33.5,29.35,WSW,248,6.0,7.7,13,-99.99,,,0.00,0,rob ver 1B,2013-08-07 16:22:00,
2013-08-07 09:23:00,91.5,54.6,29.41,SSE,158,7.2,11.4,29,-99.99,,,0.00,0,rob ver 1A,2013-08-07 16:23:00,
2013-08-07 09:24:00,90.9,33.6,29.35,West,261,5.7,7.7,12,-99.99,,,0.00,0,rob ver 1B,2013-08-07 16:24:00,
2013-08-07 09:25:00,90.8,33.0,29.35,WNW,284,5.1,6.5,13,-99.99,,,0.00,0,rob ver 1B,2013-08-07 16:25:00,
2013-08-07 09:26:00,90.9,33.5,29.35,West,274,3.2,5.9,13,-99.99,,,0.00,0,rob ver 1B,2013-08-07 16:26:00,
2013-08-07 09:27:00,91.0,33.2,29.35,WNW,285,5.7,6.8,12,-99.99,,,0.00,0,rob ver 1B,2013-08-07 16:27:00,
2013-08-07 09:28:00,91.6,54.8,29.41,SE,142,8.3,10.5,28,-99.99,,,0.00,0,rob ver 1A,2013-08-07 16:28:00,
2013-08-07 09:29:00,91.2,33.3,29.35,WNW,283,3.0,4.8,12,-99.99,,,0.00,0,rob ver 1B,2013-08-07 16:29:00,
2013-08-07 09:30:00,91.4,33.6,29.35,WSW,252,1.7,3.0,13,-99.99,,,0.00,0,rob ver 1B,2013-08-07 16:30:00,
2013-08-07 09:31:00,91.8,33.8,29.35,WSW,241,1.4,3.2,12,-99.99,,,0.00,0,rob ver 1B,2013-08-07 16:31:00,
2013-08-07 09:32:00,92.0,33.7,29.35,WSW,250,3.6,5.1,12,-99.99,,,0.00,0,rob ver 1B,2013-08-07 16:32:00,
2013-08-07 09:33:00,91.7,55.0,29.41,SSE,161,7.8,9.7,29,-99.99,,,0.00,0,rob ver 1A,2013-08-07 16:33:00,
2013-08-07 09:34:00,92.3,33.7,29.35,WNW,289,0.6,1.1,12,-99.99,,,0.00,0,rob ver 1B,2013-08-07 16:34:00,
2013-08-07 09:35:00,92.8,33.9,29.35,WNW,286,1.0,2.1,12,-99.99,,,0.00,0,rob ver 1B,2013-08-07 16:35:00,
2013-08-07 09:36:00,93.1,34.0,29.35,West,280,2.5,3.5,12,-99.99,,,0.00,0,rob ver 1B,2013-08-07 16:36:00,
2013-08-07 09:37:00,93.2,34.2,29.35,West,277,1.1,1.9,12,-99.99,,,0.00,0,rob ver 1B,2013-08-07 16:37:00,
2013-08-07 09:38:00,91.6,55.2,29.41,SSE,168,7.9,10.7,29,-99.99,,,0.00,0,rob ver 1A,2013-08-07 16:38:00,
2013-08-07 09:39:00,93.4,33.6,29.35,SW,232,4.0,5.4,12,-99.99,,,0.00,0,rob ver 1B,2013-08-07 16:39:00,
2013-08-07 09:40:00,93.2,33.8,29.35,SW,224,4.2,6.1,12,-99.99,,,0.00,0,rob ver 1B,2013-08-07 16:40:00,
2013-08-07 09:41:00,93.1,33.9,29.35,West,268,3.7,5.4,12,-99.99,,,0.00,0,rob ver 1B,2013-08-07 16:41:00,
2013-08-07 09:42:00,93.0,33.9,29.35,West,270,4.2,6.7,12,-99.99,,,0.00,0,rob ver 1B,2013-08-07 16:42:00,
2013-08-07 09:43:00,91.2,55.3,29.41,SE,128,4.5,8.1,29,-99.99,,,0.00,0,rob ver 1A,2013-08-07 16:43:00,
2013-08-07 09:44:00,92.8,34.4,29.35,SSW,205,4.0,5.0,12,-99.99,,,0.00,0,rob ver 1B,2013-08-07 16:44:00,
2013-08-07 09:45:00,92.9,34.3,29.35,SW,223,5.1,7.4,12,-99.99,,,0.00,0,rob ver 1B,2013-08-07 16:45:00,
2013-08-07 09:46:00,92.7,34.1,29.35,SW,224,5.4,6.9,12,-99.99,,,0.00,0,rob ver 1B,2013-08-07 16:46:00,
2013-08-07 09:47:00,92.5,34.2,29.35,SSW,211,4.3,5.2,12,-99.99,,,0.00,0,rob ver 1B,2013-08-07 16:47:00,
2013-08-07 09:48:00,91.5,54.9,29.41,SE,128,10.5,14.3,28,-99.99,,,0.00,0,rob ver 1A,2013-08-07 16:48:00,
2013-08-07 09:49:00,92.8,34.1,29.35,SW,214,2.5,4.1,12,-99.99,,,0.00,0,rob ver 1B,2013-08-07 16:49:00,
2013-08-07 09:50:00,93.0,33.9,29.35,SW,230,2.7,4.0,12,-99.99,,,0.00,0,rob ver 1B,2013-08-07 16:50:00,
2013-08-07 09:51:00,93.2,34.1,29.35,SW,226,2.1,3.8,12,-99.99,,,0.00,0,rob ver 1B,2013-08-07 16:51:00,
2013-08-07 09:52:00,93.4,33.9,29.35,NW,308,4.0,5.0,12,-99.99,,,0.00,0,rob ver 1B,2013-08-07 16:52:00,
2013-08-07 09:53:00,91.3,54.9,29.41,ESE,118,7.2,10.6,29,-99.99,,,0.00,0,rob ver 1A,2013-08-07 16:53:00,
2013-08-07 09:54:00,93.4,33.5,29.35,West,275,5.8,7.2,12,-99.99,,,0.00,0,rob ver 1B,2013-08-07 16:54:00,
2013-08-07 09:55:00,93.3,33.5,29.35,WSW,251,4.0,7.0,12,-99.99,,,0.00,0,rob ver 1B,2013-08-07 16:55:00,
2013-08-07 09:56:00,93.4,33.4,29.35,SSW,193,2.7,4.2,12,-99.99,,,0.00,0,rob ver 1B,2013-08-07 16:56:00,
2013-08-07 09:57:00,93.5,33.6,29.35,West,263,2.7,4.0,12,-99.99,,,0.00,0,rob ver 1B,2013-08-07 16:57:00,
2013-08-07 09:58:00,93.7,33.7,29.35,WNW,298,1.2,2.3,12,-99.99,,,0.00,0,rob ver 1B,2013-08-07 16:58:00,
2013-08-07 09:59:00,91.8,54.8,29.41,ESE,123,5.8,7.5,29,-99.99,,,0.00,0,rob ver 1A,2013-08-07 16:59:00,
2013-08-07 10:00:00,94.4,33.8,29.35,WSW,252,2.0,3.8,11,-99.99,,,0.00,0,rob ver 1B,2013-08-07 17:00:00,
2013-08-07 10:01:00,94.6,33.6,29.35,WNW,300,1.7,3.2,11,-99.99,,,0.00,0,rob ver 1B,2013-08-07 17:01:00,
2013-08-07 10:02:00,94.9,33.7,29.35,SW,228,1.3,2.8,11,-99.99,,,0.00,0,rob ver 1B,2013-08-07 17:02:00,
2013-08-07 10:03:00,95.2,33.7,29.35,WNW,294,2.3,3.8,11,-99.99,,,0.00,0,rob ver 1B,2013-08-07 17:03:00,
2013-08-07 10:04:00,92.0,54.2,29.41,SE,140,9.1,11.0,27,-99.99,,,0.00,0,rob ver 1A,2013-08-07 17:04:00,
2013-08-07 10:05:00,94.9,33.2,29.35,West,271,5.2,6.5,11,-99.99,,,0.00,0,rob ver 1B,2013-08-07 17:05:00,
2013-08-07 10:06:00,94.6,33.1,29.35,WNW,292,3.7,5.4,11,-99.99,,,0.00,0,rob ver 1B,2013-08-07 17:06:00,
2013-08-07 10:07:00,94.5,33.2,29.35,WNW,285,2.9,4.2,11,-99.99,,,0.00,0,rob ver 1B,2013-08-07 17:07:00,
2013-08-07 10:08:00,94.6,33.6,29.35,WSW,243,3.7,4.7,11,-99.99,,,0.00,0,rob ver 1B,2013-08-07 17:08:00,
2013-08-07 10:09:00,92.5,53.5,29.41,SSE,149,9.1,12.6,26,-99.99,,,0.00,0,rob ver 1A,2013-08-07 17:09:00,
2013-08-07 10:10:00,92.5,53.6,29.41,SSE,151,8.7,14.7,26,-99.99,,,0.00,0,rob ver 1A,2013-08-07 17:10:00,
2013-08-07 10:11:00,94.7,33.8,29.35,West,262,7.3,8.4,11,-99.99,,,0.00,0,rob ver 1B,2013-08-07 17:11:00,
2013-08-07 10:12:00,94.5,33.7,29.35,WNW,284,3.1,6.2,11,-99.99,,,0.00,0,rob ver 1B,2013-08-07 17:12:00,
2013-08-07 10:13:00,94.5,33.8,29.35,WNW,292,2.0,2.9,11,-99.99,,,0.00,0,rob ver 1B,2013-08-07 17:13:00,
2013-08-07 10:14:00,94.8,33.9,29.35,WSW,255,2.6,3.7,11,-99.99,,,0.00,0,rob ver 1B,2013-08-07 17:14:00,
2013-08-07 10:15:00,92.8,53.3,29.41,SSE,147,8.8,11.5,26,-99.99,,,0.00,0,rob ver 1A,2013-08-07 17:15:00,
2013-08-07 10:16:00,95.4,34.3,29.35,South,178,2.0,3.6,11,-99.99,,,0.00,0,rob ver 1B,2013-08-07 17:16:00,
2013-08-07 10:17:00,95.6,34.3,29.35,SW,218,2.5,4.4,11,-99.99,,,0.00,0,rob ver 1B,2013-08-07 17:17:00,
2013-08-07 10:18:00,95.9,34.3,29.35,SSW,197,1.9,3.9,11,-99.99,,,0.00,0,rob ver 1B,2013-08-07 17:18:00,
2013-08-07 10:19:00,96.2,34.3,29.35,WSW,240,1.9,3.6,11,-99.99,,,0.00,0,rob ver 1B,2013-08-07 17:19:00,
2013-08-07 10:20:00,93.3,53.8,29.41,ESE,110,8.3,11.9,26,-99.99,,,0.00,0,rob ver 1A,2013-08-07 17:20:00,
2013-08-07 10:21:00,96.1,34.4,29.35,SSE,164,3.1,4.7,11,-99.99,,,0.00,0,rob ver 1B,2013-08-07 17:21:00,
2013-08-07 10:22:00,96.2,34.5,29.35,South,173,4.3,8.4,11,-99.99,,,0.00,0,rob ver 1B,2013-08-07 17:22:00,
2013-08-07 10:23:00,96.1,34.1,29.35,SSW,203,6.3,8.0,11,-99.99,,,0.00,0,rob ver 1B,2013-08-07 17:23:00,
2013-08-07 10:24:00,96.0,34.1,29.35,South,182,5.2,8.5,11,-99.99,,,0.00,0,rob ver 1B,2013-08-07 17:24:00,
2013-08-07 10:25:00,93.6,51.7,29.41,ESE,114,7.4,9.7,24,-99.99,,,0.00,0,rob ver 1A,2013-08-07 17:25:00,
2013-08-07 10:26:00,95.8,34.3,29.35,South,181,4.5,8.1,11,-99.99,,,0.00,0,rob ver 1B,2013-08-07 17:26:00,
2013-08-07 10:27:00,95.9,34.0,29.32,SW,220,6.8,9.0,11,-99.99,,,0.00,0,rob ver 1B,2013-08-07 17:27:00,
2013-08-07 10:28:00,95.6,34.1,29.32,SSW,209,5.9,8.9,11,-99.99,,,0.00,0,rob ver 1B,2013-08-07 17:28:00,
2013-08-07 10:29:00,95.6,34.2,29.35,SSW,199,5.4,8.0,11,-99.99,,,0.00,0,rob ver 1B,2013-08-07 17:29:00,
2013-08-07 10:30:00,93.7,53.7,29.41,SSE,163,11.4,13.9,26,-99.99,,,0.00,0,rob ver 1A,2013-08-07 17:30:00,
2013-08-07 10:31:00,95.7,34.2,29.35,South,184,4.2,5.5,11,-99.99,,,0.00,0,rob ver 1B,2013-08-07 17:31:00,
2013-08-07 10:32:00,95.9,34.3,29.32,SSE,147,2.6,3.9,11,-99.99,,,0.00,0,rob ver 1B,2013-08-07 17:32:00,
2013-08-07 10:33:00,95.9,34.2,29.32,SSE,158,2.3,3.4,11,-99.99,,,0.00,0,rob ver 1B,2013-08-07 17:33:00,
2013-08-07 10:34:00,96.1,34.0,29.32,SSW,201,5.8,8.7,11,-99.99,,,0.00,0,rob ver 1B,2013-08-07 17:34:00,
2013-08-07 10:35:00,94.3,53.1,29.41,SSE,167,12.0,14.9,24,-99.99,,,0.00,0,rob ver 1A,2013-08-07 17:35:00,
2013-08-07 10:36:00,96.4,33.7,29.32,SSW,193,6.2,7.8,11,-99.99,,,0.00,0,rob ver 1B,2013-08-07 17:36:00,
2013-08-07 10:37:00,96.5,33.9,29.32,SSW,199,5.9,8.5,11,-99.99,,,0.00,0,rob ver 1B,2013-08-07 17:37:00,
2013-08-07 10:38:00,96.5,34.1,29.32,SSW,201,6.2,8.5,11,-99.99,,,0.00,0,rob ver 1B,2013-08-07 17:38:00,
2013-08-07 10:39:00,96.5,33.9,29.32,SSW,192,5.6,7.5,11,-99.99,,,0.00,0,rob ver 1B,2013-08-07 17:39:00,
2013-08-07 10:40:00,94.5,51.8,29.41,SE,141,6.9,9.4,24,-99.99,,,0.00,0,rob ver 1A,2013-08-07 17:40:00,
2013-08-07 10:41:00,96.4,33.8,29.32,SSE,155,4.9,7.0,11,-99.99,,,0.00,0,rob ver 1B,2013-08-07 17:41:00,
2013-08-07 10:42:00,96.3,34.0,29.32,South,170,3.2,5.3,11,-99.99,,,0.00,0,rob ver 1B,2013-08-07 17:42:00,
2013-08-07 10:43:00,96.6,33.9,29.32,WSW,240,2.7,4.0,11,-99.99,,,0.00,0,rob ver 1B,2013-08-07 17:43:00,
2013-08-07 10:44:00,96.9,34.2,29.32,WSW,238,0.6,1.5,11,-99.99,,,0.00,0,rob ver 1B,2013-08-07 17:44:00,
2013-08-07 10:45:00,94.6,52.5,29.41,SSE,166,8.8,11.5,24,-99.99,,,0.00,0,rob ver 1A,2013-08-07 17:45:00,
2013-08-07 10:46:00,97.7,33.8,29.32,SW,227,5.5,10.5,10,-99.99,,,0.00,0,rob ver 1B,2013-08-07 17:46:00,
2013-08-07 10:47:00,97.5,33.9,29.32,SW,220,4.4,5.7,10,-99.99,,,0.00,0,rob ver 1B,2013-08-07 17:47:00,
2013-08-07 10:48:00,97.4,34.0,29.32,South,172,3.2,4.8,10,-99.99,,,0.00,0,rob ver 1B,2013-08-07 17:48:00,
2013-08-07 10:49:00,97.4,34.1,29.32,SSW,208,3.1,7.0,10,-99.99,,,0.00,0,rob ver 1B,2013-08-07 17:49:00,
2013-08-07 10:50:00,97.6,33.7,29.32,SW,231,4.8,8.1,10,-99.99,,,0.00,0,rob ver 1B,2013-08-07 17:50:00,
2013-08-07 10:51:00,95.1,52.0,29.41,South,191,10.4,13.9,23,-99.99,,,0.00,0,rob ver 1A,2013-08-07 17:51:00,
2013-08-07 10:52:00,97.6,33.3,29.32,SSW,208,7.3,9.8,10,-99.99,,,0.00,0,rob ver 1B,2013-08-07 17:52:00,
2013-08-07 10:53:00,97.4,33.4,29.32,SSW,194,6.8,8.9,10,-99.99,,,0.00,0,rob ver 1B,2013-08-07 17:53:00,
2013-08-07 10:54:00,97.4,33.5,29.32,South,170,4.3,7.3,10,-99.99,,,0.00,0,rob ver 1B,2013-08-07 17:54:00,
2013-08-07 10:55:00,97.6,32.8,29.32,South,176,8.6,11.5,10,-99.99,,,0.00,0,rob ver 1B,2013-08-07 17:55:00,
2013-08-07 10:56:00,95.1,50.9,29.41,South,177,7.6,11.7,22,-99.99,,,0.00,0,rob ver 1A,2013-08-07 17:56:00,
2013-08-07 10:57:00,97.9,32.8,29.32,South,190,7.1,9.8,10,-99.99,,,0.00,0,rob ver 1B,2013-08-07 17:57:00,
2013-08-07 10:58:00,97.9,32.8,29.32,SSE,167,4.7,6.8,10,-99.99,,,0.00,0,rob ver 1B,2013-08-07 17:58:00,
2013-08-07 10:59:00,97.9,32.7,29.32,South,189,5.4,7.7,10,-99.99,,,0.00,0,rob ver 1B,2013-08-07 17:59:00,
2013-08-07 11:00:00,98.1,32.8,29.32,SSW,204,8.0,11.0,10,-99.99,,,0.00,0,rob ver 1B,2013-08-07 18:00:00,
2013-08-07 11:01:00,95.4,50.4,29.41,South,170,10.6,12.7,22,-99.99,,,0.00,0,rob ver 1A,2013-08-07 18:01:00,
2013-08-07 11:02:00,97.9,32.2,29.32,SW,226,9.6,13.0,10,-99.99,,,0.00,0,rob ver 1B,2013-08-07 18:02:00,
2013-08-07 11:03:00,97.6,32.7,29.32,WSW,237,6.1,7.5,10,-99.99,,,0.00,0,rob ver 1B,2013-08-07 18:03:00,
2013-08-07 11:04:00,97.6,32.8,29.32,SW,235,10.9,15.4,10,-99.99,,,0.00,0,rob ver 1B,2013-08-07 18:04:00,
2013-08-07 11:05:00,97.5,32.7,29.32,SW,229,8.8,13.0,10,-99.99,,,0.00,0,rob ver 1B,2013-08-07 18:05:00,
2013-08-07 11:06:00,94.6,49.2,29.41,South,174,8.2,10.1,21,-99.99,,,0.00,0,rob ver 1A,2013-08-07 18:06:00,
2013-08-07 11:07:00,97.6,33.3,29.32,SSW,211,5.7,9.4,10,-99.99,,,0.00,0,rob ver 1B,2013-08-07 18:07:00,
2013-08-07 11:08:00,97.7,33.5,29.32,SSW,207,5.4,7.3,10,-99.99,,,0.00,0,rob ver 1B,2013-08-07 18:08:00,
2013-08-07 11:09:00,97.9,33.6,29.32,SSW,192,4.5,6.0,10,-99.99,,,0.00,0,rob ver 1B,2013-08-07 18:09:00,
2013-08-07 11:10:00,98.0,33.8,29.32,SW,228,3.9,6.5,10,-99.99,,,0.00,0,rob ver 1B,2013-08-07 18:10:00,
2013-08-07 11:11:00,95.2,47.0,29.41,SSW,202,6.4,11.5,19,-99.99,,,0.00,0,rob ver 1A,2013-08-07 18:11:00,
2013-08-07 11:12:00,97.7,33.8,29.32,SW,232,6.1,11.6,10,-99.99,,,0.00,0,rob ver 1B,2013-08-07 18:12:00,
2013-08-07 11:13:00,97.8,33.2,29.32,SSW,206,10.4,13.9,10,-99.99,,,0.00,0,rob ver 1B,2013-08-07 18:13:00,
2013-08-07 11:14:00,98.0,33.2,29.32,SSW,205,7.6,10.3,10,-99.99,,,0.00,0,rob ver 1B,2013-08-07 18:14:00,
2013-08-07 11:15:00,98.2,33.4,29.32,SW,229,7.3,10.5,10,-99.99,,,0.00,0,rob ver 1B,2013-08-07 18:15:00,
2013-08-07 11:16:00,96.5,40.7,29.41,SW,220,4.5,7.0,14,-99.99,,,0.00,0,rob ver 1A,2013-08-07 18:16:00,
2013-08-07 11:17:00,98.2,33.4,29.32,SSW,213,11.1,14.2,10,-99.99,,,0.00,0,rob ver 1B,2013-08-07 18:17:00,
2013-08-07 11:18:00,98.3,33.2,29.32,SSW,206,12.0,14.4,10,-99.99,,,0.00,0,rob ver 1B,2013-08-07 18:18:00,
2013-08-07 11:19:00,98.5,33.1,29.32,SSW,210,8.5,11.7,10,-99.99,,,0.00,0,rob ver 1B,2013-08-07 18:19:00,
2013-08-07 11:20:00,98.7,33.2,29.32,SSW,206,7.1,9.7,10,-99.99,,,0.00,0,rob ver 1B,2013-08-07 18:20:00,
2013-08-07 11:21:00,97.0,48.0,29.41,South,182,8.7,11.2,19,-99.99,,,0.00,0,rob ver 1A,2013-08-07 18:21:00,
2013-08-07 11:22:00,98.7,33.4,29.32,South,175,4.3,7.1,10,-99.99,,,0.00,0,rob ver 1B,2013-08-07 18:22:00,
2013-08-07 11:23:00,98.7,33.5,29.32,South,175,3.4,6.6,10,-99.99,,,0.00,0,rob ver 1B,2013-08-07 18:23:00,
2013-08-07 11:24:00,98.9,33.8,29.32,SW,215,2.1,5.4,10,-99.99,,,0.00,0,rob ver 1B,2013-08-07 18:24:00,
2013-08-07 11:25:00,99.2,34.1,29.32,SSW,211,6.4,9.2,10,-99.99,,,0.00,0,rob ver 1B,2013-08-07 18:25:00,
2013-08-07 11:26:00,96.6,47.9,29.41,SSE,154,5.7,8.3,18,-99.99,,,0.00,0,rob ver 1A,2013-08-07 18:26:00,
2013-08-07 11:27:00,99.1,32.5,29.32,SSW,206,10.8,15.8,9,-99.99,,,0.00,0,rob ver 1B,2013-08-07 18:27:00,
2013-08-07 11:28:00,98.7,32.4,29.32,SSW,204,9.3,13.2,10,-99.99,,,0.00,0,rob ver 1B,2013-08-07 18:28:00,
2013-08-07 11:29:00,98.5,32.5,29.32,SW,216,7.6,10.8,9,-99.99,,,0.00,0,rob ver 1B,2013-08-07 18:29:00,
2013-08-07 11:30:00,98.5,31.7,29.32,SW,230,4.5,9.0,9,-99.99,,,0.00,0,rob ver 1B,2013-08-07 18:30:00,
2013-08-07 11:31:00,98.6,33.0,29.32,SSW,207,3.4,5.3,10,-99.99,,,0.00,0,rob ver 1B,2013-08-07 18:31:00,
2013-08-07 11:32:00,96.9,49.3,29.38,SW,226,4.5,8.4,19,-99.99,,,0.00,0,rob ver 1A,2013-08-07 18:32:00,
2013-08-07 11:33:00,98.5,33.3,29.32,WSW,237,5.8,8.9,10,-99.99,,,0.00,0,rob ver 1B,2013-08-07 18:33:00,
2013-08-07 11:34:00,98.7,33.6,29.32,SSW,196,6.7,10.8,10,-99.99,,,0.00,0,rob ver 1B,2013-08-07 18:34:00,
2013-08-07 11:35:00,99.2,32.9,29.32,SW,219,9.9,12.8,9,-99.99,,,0.00,0,rob ver 1B,2013-08-07 18:35:00,
2013-08-07 11:36:00,99.2,32.5,29.32,SW,217,9.5,12.4,9,-99.99,,,0.00,0,rob ver 1B,2013-08-07 18:36:00,
2013-08-07 11:37:00,97.0,50.5,29.38,SW,217,6.8,12.5,20,-99.99,,,0.00,0,rob ver 1A,2013-08-07 18:37:00,
2013-08-07 11:42:00,97.3,48.3,29.38,South,187,8.5,11.6,18,-99.99,,,0.00,0,rob ver 1A,2013-08-07 18:42:00,
2013-08-07 11:47:00,96.9,49.2,29.38,SE,133,5.4,7.4,19,-99.99,,,0.00,0,rob ver 1A,2013-08-07 18:47:00,
2013-08-07 11:52:00,97.2,48.3,29.38,ESE,116,4.9,11.6,19,-99.99,,,0.00,0,rob ver 1A,2013-08-07 18:52:00,
2013-08-07 11:57:00,97.5,40.8,29.38,South,179,7.6,11.3,13,-99.99,,,0.00,0,rob ver 1A,2013-08-07 18:57:00,
2013-08-07 12:02:00,98.5,40.3,29.38,ESE,115,1.5,2.8,13,-99.99,,,0.00,0,rob ver 1A,2013-08-07 19:02:00,
2013-08-07 12:07:00,98.9,41.8,29.38,WSW,239,10.1,11.8,14,-99.99,,,0.00,0,rob ver 1A,2013-08-07 19:07:00,
2013-08-07 12:12:00,98.2,42.5,29.38,South,184,7.6,10.6,14,-99.99,,,0.00,0,rob ver 1A,2013-08-07 19:12:00,
2013-08-07 12:17:00,99.4,39.9,29.38,South,179,9.5,12.3,13,-99.99,,,0.00,0,rob ver 1A,2013-08-07 19:17:00,
2013-08-07 12:22:00,98.4,38.6,29.38,SSW,203,11.9,16.0,12,-99.99,,,0.00,0,rob ver 1A,2013-08-07 19:22:00,
2013-08-07 12:28:00,99.2,38.5,29.38,SSW,207,6.0,9.7,12,-99.99,,,0.00,0,rob ver 1A,2013-08-07 19:28:00,
2013-08-07 12:33:00,98.9,39.0,29.38,SW,221,9.0,11.5,12,-99.99,,,0.00,0,rob ver 1A,2013-08-07 19:33:00,
2013-08-07 12:38:00,99.7,38.9,29.38,SSW,204,13.2,17.5,12,-99.99,,,0.00,0,rob ver 1A,2013-08-07 19:38:00,
2013-08-07 12:43:00,99.6,39.0,29.38,South,178,10.8,15.0,12,-99.99,,,0.00,0,rob ver 1A,2013-08-07 19:43:00,
2013-08-07 12:48:00,99.5,36.0,29.38,SW,225,9.5,14.5,10,-99.99,,,0.00,0,rob ver 1A,2013-08-07 19:48:00,
2013-08-07 12:53:00,100.1,30.3,29.38,SSW,212,15.9,18.7,8,-99.99,,,0.00,0,rob ver 1A,2013-08-07 19:53:00,
2013-08-07 12:58:00,99.9,34.5,29.38,SSW,201,7.9,12.9,10,-99.99,,,0.00,0,rob ver 1A,2013-08-07 19:58:00,
2013-08-07 13:03:00,99.8,35.2,29.38,SSW,212,7.4,11.9,10,-99.99,,,0.00,0,rob ver 1A,2013-08-07 20:03:00,
2013-08-07 13:08:00,99.6,34.7,29.38,SSW,194,11.8,17.6,9,-99.99,,,0.00,0,rob ver 1A,2013-08-07 20:08:00,
2013-08-07 13:13:00,100.1,34.6,29.38,SSW,199,8.3,12.4,10,-99.99,,,0.00,0,rob ver 1A,2013-08-07 20:13:00,
2013-08-07 13:18:00,100.6,34.3,29.38,South,187,10.5,15.2,10,-99.99,,,0.00,0,rob ver 1A,2013-08-07 20:18:00,
2013-08-07 13:23:00,100.8,31.2,29.35,SW,216,3.1,7.7,8,-99.99,,,0.00,0,rob ver 1A,2013-08-07 20:23:00,
2013-08-07 13:28:00,101.4,26.1,29.35,South,173,9.9,13.6,6,-99.99,,,0.00,0,rob ver 1A,2013-08-07 20:28:00,
2013-08-07 13:34:00,100.5,33.0,29.35,South,173,10.7,14.5,9,-99.99,,,0.00,0,rob ver 1A,2013-08-07 20:34:00,
2013-08-07 13:39:00,100.9,34.9,29.35,SSW,196,16.6,21.4,10,-99.99,,,0.00,0,rob ver 1A,2013-08-07 20:39:00,
2013-08-07 13:44:00,100.8,32.3,29.35,SW,215,12.8,15.5,9,-99.99,,,0.00,0,rob ver 1A,2013-08-07 20:44:00,
2013-08-07 13:49:00,99.9,31.6,29.35,NW,310,2.7,4.8,9,-99.99,,,0.00,0,rob ver 1A,2013-08-07 20:49:00,
2013-08-07 13:54:00,100.6,28.6,29.35,South,185,10.4,14.2,7,-99.99,,,0.00,0,rob ver 1A,2013-08-07 20:54:00,
2013-08-07 13:59:00,100.9,26.2,29.35,SW,232,7.4,9.6,7,-99.99,,,0.00,0,rob ver 1A,2013-08-07 20:59:00,
2013-08-07 14:04:00,101.3,24.1,29.35,SSW,207,10.4,15.3,6,-99.99,,,0.00,0,rob ver 1A,2013-08-07 21:04:00,
2013-08-07 14:09:00,101.6,23.8,29.35,SSW,200,7.9,11.9,6,-99.99,,,0.00,0,rob ver 1A,2013-08-07 21:09:00,
2013-08-07 14:14:00,101.7,23.6,29.35,SW,225,7.7,11.6,6,-99.99,,,0.00,0,rob ver 1A,2013-08-07 21:14:00,
2013-08-07 14:20:00,101.9,22.5,29.35,SSW,196,9.1,12.7,5,-99.99,,,0.00,0,rob ver 1A,2013-08-07 21:20:00,
2013-08-07 14:25:00,101.4,22.8,29.35,South,179,8.6,12.4,6,-99.99,,,0.00,0,rob ver 1A,2013-08-07 21:25:00,
2013-08-07 14:30:00,101.2,23.1,29.35,South,184,7.6,10.1,6,-99.99,,,0.00,0,rob ver 1A,2013-08-07 21:30:00,
2013-08-07 14:35:00,101.6,23.6,29.32,South,187,11.8,15.7,6,-99.99,,,0.00,0,rob ver 1A,2013-08-07 21:35:00,
2013-08-07 14:40:00,102.8,22.8,29.32,South,176,15.3,19.2,5,-99.99,,,0.00,0,rob ver 1A,2013-08-07 21:40:00,
2013-08-07 14:45:00,102.1,22.2,29.32,SSE,150,12.2,17.0,5,-99.99,,,0.00,0,rob ver 1A,2013-08-07 21:45:00,
2013-08-07 14:50:00,102.6,21.6,29.32,South,190,14.9,18.2,5,-99.99,,,0.00,0,rob ver 1A,2013-08-07 21:50:00,
2013-08-07 14:55:00,102.9,20.8,29.32,SSW,199,13.3,16.9,5,-99.99,,,0.00,0,rob ver 1A,2013-08-07 21:55:00,
2013-08-07 15:00:00,102.8,20.7,29.32,South,171,8.6,14.2,5,-99.99,,,0.00,0,rob ver 1A,2013-08-07 22:00:00,
2013-08-07 15:05:00,103.2,21.0,29.32,SSW,205,4.9,8.0,5,-99.99,,,0.00,0,rob ver 1A,2013-08-07 22:05:00,
2013-08-07 15:10:00,103.2,20.8,29.32,South,190,10.0,12.7,5,-99.99,,,0.00,0,rob ver 1A,2013-08-07 22:10:00,
2013-08-07 15:16:00,102.9,20.4,29.32,South,183,9.9,13.6,5,-99.99,,,0.00,0,rob ver 1A,2013-08-07 22:16:00,
2013-08-07 15:21:00,102.4,20.8,29.32,South,179,13.7,20.0,5,-99.99,,,0.00,0,rob ver 1A,2013-08-07 22:21:00,
2013-08-07 15:26:00,102.4,19.6,29.32,SSW,202,13.4,18.3,5,-99.99,,,0.00,0,rob ver 1A,2013-08-07 22:26:00,
2013-08-07 15:31:00,102.3,19.5,29.32,SW,224,7.9,9.9,5,-99.99,,,0.00,0,rob ver 1A,2013-08-07 22:31:00,
2013-08-07 15:36:00,102.7,19.5,29.32,South,177,9.0,11.1,5,-99.99,,,0.00,0,rob ver 1A,2013-08-07 22:36:00,
2013-08-07 15:41:00,102.6,19.6,29.32,SW,216,10.1,14.0,5,-99.99,,,0.00,0,rob ver 1A,2013-08-07 22:41:00,
2013-08-07 15:46:00,103.6,20.2,29.32,SSW,203,11.3,14.4,5,-99.99,,,0.00,0,rob ver 1A,2013-08-07 22:46:00,
2013-08-07 15:51:00,103.7,18.4,29.29,South,184,16.4,19.5,4,-99.99,,,0.00,0,rob ver 1A,2013-08-07 22:51:00,
2013-08-07 15:56:00,103.1,18.9,29.29,SSW,198,9.0,13.1,4,-99.99,,,0.00,0,rob ver 1A,2013-08-07 22:56:00,
2013-08-07 16:01:00,103.0,17.0,29.29,SSW,199,9.8,14.9,4,-99.99,,,0.00,2229,rob ver 1A,2013-08-07 23:01:00,
2013-08-07 16:07:00,102.4,17.1,29.29,South,177,14.7,18.1,4,-99.99,,,0.00,0,rob ver 1A,2013-08-07 23:07:00,
2013-08-07 16:12:00,103.0,16.9,29.29,South,177,15.5,18.1,4,-99.99,,,0.00,0,rob ver 1A,2013-08-07 23:12:00,
2013-08-07 16:17:00,102.2,15.4,29.29,SSW,211,9.2,12.4,4,-99.99,,,0.00,2236,rob ver 1A,2013-08-07 23:17:00,
2013-08-07 16:22:00,102.7,15.9,29.29,SSW,211,13.0,15.8,4,-99.99,,,0.00,0,rob ver 1A,2013-08-07 23:22:00,
2013-08-07 16:27:00,103.3,17.0,29.29,SSW,192,11.8,14.2,4,-99.99,,,0.00,0,rob ver 1A,2013-08-07 23:27:00,
2013-08-07 16:32:00,103.3,17.0,29.29,SSE,163,10.9,15.1,4,-99.99,,,0.00,0,rob ver 1A,2013-08-07 23:32:00,
2013-08-07 16:37:00,103.4,16.6,29.29,SSE,164,9.6,15.2,4,-99.99,,,0.00,0,rob ver 1A,2013-08-07 23:37:00,
2013-08-07 16:42:00,103.2,16.7,29.29,South,169,8.2,11.7,4,-99.99,,,0.00,1905,rob ver 1A,2013-08-07 23:42:00,
2013-08-07 16:47:00,102.8,16.6,29.29,SSW,206,12.2,15.9,4,-99.99,,,0.00,2521,rob ver 1A,2013-08-07 23:47:00,
2013-08-07 16:52:00,102.6,16.2,29.29,South,173,6.1,7.9,4,-99.99,,,0.00,2549,rob ver 1A,2013-08-07 23:52:00,
2013-08-07 16:58:00,103.0,16.0,29.29,South,183,9.8,12.3,4,-99.99,,,0.00,0,rob ver 1A,2013-08-07 23:58:00,
2013-08-07 17:03:00,103.6,16.1,29.29,SSW,201,9.2,12.0,4,-99.99,,,0.00,0,rob ver 1A,2013-08-08 00:03:00,
2013-08-07 17:13:00,103.2,16.1,29.29,SSW,202,7.9,9.9,4,-99.99,,,0.00,2688,rob ver 1A,2013-08-08 00:13:00,
2013-08-07 17:18:00,103.1,16.1,29.29,South,176,11.3,15.1,4,-99.99,,,0.00,1793,rob ver 1A,2013-08-08 00:18:00,
2013-08-07 17:23:00,102.9,15.5,29.29,South,184,14.1,17.8,4,-99.99,,,0.00,1941,rob ver 1A,2013-08-08 00:23:00,
2013-08-07 17:28:00,103.0,15.7,29.29,South,171,9.9,12.4,4,-99.99,,,0.00,1842,rob ver 1A,2013-08-08 00:28:00,
2013-08-07 17:33:00,102.6,16.5,29.29,South,177,12.7,15.4,4,-99.99,,,0.00,1679,rob ver 1A,2013-08-08 00:33:00,
2013-08-07 17:38:00,102.3,15.9,29.29,South,172,12.0,15.0,4,-99.99,,,0.00,1503,rob ver 1A,2013-08-08 00:38:00,
2013-08-07 17:44:00,102.2,16.4,29.29,South,178,13.3,16.2,4,-99.99,,,0.00,1521,rob ver 1A,2013-08-08 00:44:00,
2013-08-07 17:49:00,101.9,16.0,29.29,South,177,11.3,14.4,4,-99.99,,,0.00,1008,rob ver 1A,2013-08-08 00:49:00,
2013-08-07 17:54:00,102.0,16.4,29.29,SSW,199,11.1,13.6,4,-99.99,,,0.00,992,rob ver 1A,2013-08-08 00:54:00,
2013-08-07 17:59:00,101.6,16.5,29.29,South,173,12.9,16.9,4,-99.99,,,0.00,1027,rob ver 1A,2013-08-08 00:59:00,
2013-08-07 18:04:00,101.5,16.4,29.29,South,178,12.4,14.9,4,-99.99,,,0.00,893,rob ver 1A,2013-08-08 01:04:00,
2013-08-07 18:09:00,101.6,16.8,29.29,South,178,11.3,14.2,4,-99.99,,,0.00,855,rob ver 1A,2013-08-08 01:09:00,
2013-08-07 18:14:00,101.4,17.5,29.29,South,186,13.1,14.6,4,-99.99,,,0.00,823,rob ver 1A,2013-08-08 01:14:00,
2013-08-07 18:19:00,101.0,17.7,29.29,South,187,10.7,13.0,5,-99.99,,,0.00,734,rob ver 1A,2013-08-08 01:19:00,
2013-08-07 18:24:00,101.1,17.8,29.29,South,185,11.4,14.8,5,-99.99,,,0.00,841,rob ver 1A,2013-08-08 01:24:00,
2013-08-07 18:29:00,101.1,18.6,29.29,South,188,9.5,11.8,5,-99.99,,,0.00,616.6,rob ver 1A,2013-08-08 01:29:00,
2013-08-07 18:35:00,100.9,19.2,29.29,SSW,194,9.5,11.2,5,-99.99,,,0.00,547.7,rob ver 1A,2013-08-08 01:35:00,
2013-08-07 18:40:00,100.6,18.0,29.29,SSW,193,10.1,12.6,5,-99.99,,,0.00,502.5,rob ver 1A,2013-08-08 01:40:00,
2013-08-07 18:45:00,100.5,17.9,29.29,South,174,11.0,13.0,5,-99.99,,,0.00,476.8,rob ver 1A,2013-08-08 01:45:00,
2013-08-07 18:50:00,100.3,19.4,29.29,South,190,8.8,10.9,5,-99.99,,,0.00,509.8,rob ver 1A,2013-08-08 01:50:00,
2013-08-07 18:55:00,100.3,20.9,29.29,SSW,196,9.1,10.8,5,-99.99,,,0.00,412.3,rob ver 1A,2013-08-08 01:55:00,
2013-08-07 19:00:00,100.2,22.3,29.29,SW,223,7.8,9.3,6,-99.99,,,0.00,575.7,rob ver 1A,2013-08-08 02:00:00,
2013-08-07 19:06:00,100.1,22.3,29.29,SSW,201,8.3,9.8,6,-99.99,,,0.00,411.4,rob ver 1A,2013-08-08 02:06:00,
2013-08-07 19:11:00,100.1,23.2,29.29,SSW,206,7.5,9.6,6,-99.99,,,0.00,398.6,rob ver 1A,2013-08-08 02:11:00,
2013-08-07 19:16:00,99.9,21.8,29.29,SW,219,8.7,10.9,6,-99.99,,,0.00,297.6,rob ver 1A,2013-08-08 02:16:00,
2013-08-07 19:21:00,99.9,21.1,29.29,SW,223,8.6,10.7,5,-99.99,,,0.00,192.8,rob ver 1A,2013-08-08 02:21:00,
2013-08-07 19:26:00,99.6,20.3,29.29,SW,227,7.5,10.7,5,-99.99,,,0.00,88,rob ver 1A,2013-08-08 02:26:00,
2013-08-07 19:33:00,99.1,20.8,29.29,SSW,196,5.7,6.9,6,-99.99,,,0.00,35.26,rob ver 1A,2013-08-08 02:33:00,
2013-08-07 19:38:00,98.3,22.5,29.29,SSW,195,6.2,7.5,6,-99.99,,,0.00,23.73,rob ver 1A,2013-08-08 02:38:00,
2013-08-07 19:43:00,97.8,21.8,29.29,South,188,6.0,7.2,6,-99.99,,,0.00,8.57,rob ver 1A,2013-08-08 02:43:00,
2013-08-07 19:48:00,97.5,22.0,29.29,South,179,5.5,6.7,6,-99.99,,,0.00,2.307,rob ver 1A,2013-08-08 02:48:00,
2013-08-07 19:53:00,97.0,22.3,29.29,South,183,5.7,7.0,6,-99.99,,,0.00,.659,rob ver 1A,2013-08-08 02:53:00,
2013-08-07 19:58:00,96.6,22.7,29.29,South,179,5.5,6.3,7,-99.99,,,0.00,.33,rob ver 1A,2013-08-08 02:58:00,
2013-08-07 20:03:00,96.2,23.0,29.29,South,180,5.2,6.2,7,-99.99,,,0.00,0,rob ver 1A,2013-08-08 03:03:00,
2013-08-07 20:09:00,95.8,23.1,29.29,South,190,3.9,4.9,7,-99.99,,,0.00,0,rob ver 1A,2013-08-08 03:09:00,
2013-08-07 20:14:00,95.3,23.3,29.29,South,177,5.0,5.6,7,-99.99,,,0.00,0,rob ver 1A,2013-08-08 03:14:00,
2013-08-07 20:19:00,95.1,23.5,29.29,South,178,4.0,5.1,7,-99.99,,,0.00,0,rob ver 1A,2013-08-08 03:19:00,
2013-08-07 20:24:00,94.7,23.5,29.29,South,169,4.3,4.9,7,-99.99,,,0.00,0,rob ver 1A,2013-08-08 03:24:00,
2013-08-07 20:29:00,94.2,23.6,29.29,SSW,193,4.2,5.5,7,-99.99,,,0.00,0,rob ver 1A,2013-08-08 03:29:00,
2013-08-07 20:34:00,93.9,24.1,29.29,SSW,198,4.4,5.7,8,-99.99,,,0.00,0,rob ver 1A,2013-08-08 03:34:00,
2013-08-07 20:39:00,94.0,24.2,29.29,SSW,203,4.4,5.0,8,-99.99,,,0.00,0,rob ver 1A,2013-08-08 03:39:00,
2013-08-07 20:44:00,93.7,24.5,29.29,South,186,2.7,3.3,8,-99.99,,,0.00,0,rob ver 1A,2013-08-08 03:44:00,
2013-08-07 20:45:00,93.6,24.4,29.29,South,188,2.5,3.1,8,-99.99,,,0.00,0,rob ver 1A,2013-08-08 03:45:00,
2013-08-07 20:50:00,93.4,24.4,29.29,SSW,196,2.4,2.8,8,-99.99,,,0.00,0,rob ver 1A,2013-08-08 03:50:00,
2013-08-07 20:56:00,93.1,24.4,29.29,SSE,161,1.9,2.4,8,-99.99,,,0.00,0,rob ver 1A,2013-08-08 03:56:00,
2013-08-07 21:01:00,92.4,24.5,29.29,East,100,1.5,2.5,8,-99.99,,,0.00,0,rob ver 1A,2013-08-08 04:01:00,
2013-08-07 21:02:00,92.4,24.2,29.29,SE,131,0.9,1.5,8,-99.99,,,0.00,0,rob ver 1A,2013-08-08 04:02:00,
2013-08-07 21:06:00,92.1,24.1,29.29,ENE,59,0.3,0.5,8,-99.99,,,0.00,0,rob ver 1A,2013-08-08 04:06:00,
2013-08-07 21:11:00,92.3,24.1,29.29,North,352,1.2,1.5,8,-99.99,,,0.00,0,rob ver 1A,2013-08-08 04:11:00,
2013-08-07 21:16:00,92.5,24.0,29.32,North,10,1.6,2.1,8,-99.99,,,0.00,0,rob ver 1A,2013-08-08 04:16:00,
2013-08-07 21:21:00,92.6,23.8,29.32,WNW,302,1.2,1.8,8,-99.99,,,0.00,0,rob ver 1A,2013-08-08 04:21:00,
2013-08-07 21:26:00,92.6,23.8,29.32,NW,325,2.8,3.1,8,-99.99,,,0.00,0,rob ver 1A,2013-08-08 04:26:00,
2013-08-07 21:31:00,92.3,23.9,29.29,WNW,301,2.2,2.9,8,-99.99,,,0.00,0,rob ver 1A,2013-08-08 04:31:00,
2013-08-07 21:36:00,92.0,23.6,29.29,WSW,248,2.4,2.7,8,-99.99,,,0.00,0,rob ver 1A,2013-08-08 04:36:00,
2013-08-07 21:41:00,92.0,23.7,29.32,WSW,241,2.1,2.5,8,-99.99,,,0.00,0,rob ver 1A,2013-08-08 04:41:00,
2013-08-07 21:47:00,91.8,23.4,29.32,SSW,208,1.2,1.6,8,-99.99,,,0.00,0,rob ver 1A,2013-08-08 04:47:00,
2013-08-07 21:52:00,91.4,23.4,29.32,South,175,1.6,2.6,8,-99.99,,,0.00,0,rob ver 1A,2013-08-08 04:52:00,
2013-08-07 21:57:00,91.6,23.0,29.32,South,175,4.4,5.3,8,-99.99,,,0.00,0,rob ver 1A,2013-08-08 04:57:00,
2013-08-07 22:02:00,91.7,22.9,29.32,SSW,192,7.8,9.3,8,-99.99,,,0.00,0,rob ver 1A,2013-08-08 05:02:00,
2013-08-07 22:07:00,91.8,23.1,29.32,SSW,202,6.8,7.5,8,-99.99,,,0.00,0,rob ver 1A,2013-08-08 05:07:00,
2013-08-07 22:12:00,90.8,24.0,29.32,SSW,206,7.5,9.8,9,-99.99,,,0.00,0,rob ver 1A,2013-08-08 05:12:00,
2013-08-07 22:17:00,90.4,25.4,29.32,SSW,194,7.5,9.1,9,-99.99,,,0.00,0,rob ver 1A,2013-08-08 05:17:00,
2013-08-07 22:22:00,90.5,25.7,29.32,South,185,7.4,9.0,9,-99.99,,,0.00,0,rob ver 1A,2013-08-08 05:22:00,
2013-08-07 22:27:00,90.0,25.6,29.32,South,189,6.2,7.5,9,-99.99,,,0.00,0,rob ver 1A,2013-08-08 05:27:00,
2013-08-07 22:32:00,89.7,25.8,29.32,South,188,5.2,6.1,9,-99.99,,,0.00,0,rob ver 1A,2013-08-08 05:32:00,
2013-08-07 22:37:00,89.3,27.0,29.32,South,183,7.8,9.3,10,-99.99,,,0.00,0,rob ver 1A,2013-08-08 05:37:00,
2013-08-07 22:42:00,89.6,27.5,29.32,South,187,7.8,9.6,10,-99.99,,,0.00,0,rob ver 1A,2013-08-08 05:42:00,
2013-08-07 22:48:00,89.1,27.5,29.32,SSW,207,5.2,6.3,10,-99.99,,,0.00,0,rob ver 1A,2013-08-08 05:48:00,
2013-08-07 22:53:00,88.6,27.3,29.32,WNW,283,1.2,1.8,11,-99.99,,,0.00,0,rob ver 1A,2013-08-08 05:53:00,
2013-08-07 22:58:00,88.3,27.0,29.32,WSW,251,0.5,0.9,10,-99.99,,,0.00,0,rob ver 1A,2013-08-08 05:58:00,
2013-08-07 23:03:00,88.4,26.8,29.32,WSW,253,1.4,2.6,10,-99.99,,,0.00,0,rob ver 1A,2013-08-08 06:03:00,
2013-08-07 23:08:00,88.6,26.9,29.32,WNW,296,1.3,1.7,10,-99.99,,,0.00,0,rob ver 1A,2013-08-08 06:08:00,
2013-08-07 23:13:00,88.5,27.2,29.32,ESE,110,0.8,1.5,11,-99.99,,,0.00,0,rob ver 1A,2013-08-08 06:13:00,
2013-08-07 23:18:00,88.6,28.0,29.32,ESE,106,1.9,3.2,11,-99.99,,,0.00,0,rob ver 1A,2013-08-08 06:18:00,
2013-08-07 23:23:00,88.6,29.6,29.32,SW,217,0.9,1.7,12,-99.99,,,0.00,0,rob ver 1A,2013-08-08 06:23:00,
2013-08-07 23:29:00,88.2,30.8,29.32,SSE,162,1.4,2.1,12,-99.99,,,0.00,0,rob ver 1A,2013-08-08 06:29:00,
2013-08-07 23:34:00,87.8,32.0,29.32,SW,221,1.3,1.9,13,-99.99,,,0.00,0,rob ver 1A,2013-08-08 06:34:00,
2013-08-07 23:39:00,87.3,32.3,29.32,NE,54,0.7,1.0,13,-99.99,,,0.00,0,rob ver 1A,2013-08-08 06:39:00,
2013-08-07 23:44:00,86.9,32.8,29.32,NE,51,2.4,3.0,14,-99.99,,,0.00,0,rob ver 1A,2013-08-08 06:44:00,
2013-08-07 23:49:00,86.8,34.2,29.32,NE,46,2.1,2.8,14,-99.99,,,0.00,0,rob ver 1A,2013-08-08 06:49:00,
2013-08-07 23:54:00,86.7,36.3,29.32,ENE,77,1.6,2.6,16,-99.99,,,0.00,0,rob ver 1A,2013-08-08 06:54:00,
2013-08-07 23:59:00,87.0,38.2,29.32,SSE,162,2.5,3.8,17,-99.99,,,0.00,0,rob ver 1A,2013-08-08 06:59:00,